M I D A S
Marine Information and Data Acquisition System
Tripno 1257 of the Zeeleeuw from 2007-02-15 09:01:34 to 2007-02-15 15:33:29
Back to CruiseResearch ActivitiesStationsMapUnderway DataData graphs

EquipmentUnitsComment
TimeDGPSUTC
LatitudeDGPSDM.mWGS84
LongitudeDGPSDM.mWGS84
TemperatureSBE03/SBE38deg celciusITS90
ConductivitySBE21S/mITS90
SalinitySBE21 Practical Salinity Units
ChlorophylAChelsea fluorimeterg/lCalibrated in Aceton
Missing or incorrect values are displayed as -999
Sea surface data collected by the RV Zeeleeuw from 2007-02-15 07:24:43 to 2007-02-15 15:42:20
                                                                                    Next 1000 lines
Time Latitude Longitude Temperature Conductivity Salinity ChlorophylA
2007-02-15 07:24:53 51°13.598 2°56.093 15.3171 0.063341 0.357172 -2.871232
2007-02-15 07:24:58 51°13.598 2°56.093 15.3175 0.063443 0.357742 -2.871232
2007-02-15 07:25:03 51°13.598 2°56.093 15.3148 0.063341 0.357107 -2.871232
2007-02-15 07:25:07 51°13.598 2°56.094 15.3136 0.063341 0.357077 -2.871232
2007-02-15 07:25:13 51°13.598 2°56.094 15.3127 0.063443 0.357669 -2.871232
2007-02-15 07:25:18 51°13.598 2°56.094 15.312 0.063341 0.35707 -2.871232
2007-02-15 07:25:23 51°13.598 2°56.094 15.3103 0.063443 0.357676 -2.871232
2007-02-15 07:25:28 51°13.598 2°56.094 15.3063 0.063443 0.357676 -2.871232
2007-02-15 07:25:33 51°13.598 2°56.094 15.3029 0.063443 0.357683 -2.871232
2007-02-15 07:25:38 51°13.598 2°56.094 15.3017 0.063341 0.357092 -2.871232
2007-02-15 07:25:42 51°13.598 2°56.094 15.3002 0.063443 0.357705 -2.871232
2007-02-15 07:25:48 51°13.598 2°56.094 15.2982 0.063443 0.35772 -2.871232
2007-02-15 07:25:53 51°13.598 2°56.094 15.2984 0.063443 0.357735 -2.871232
2007-02-15 07:25:58 51°13.598 2°56.094 15.2975 0.063443 0.357735 -2.871232
2007-02-15 07:26:03 51°13.598 2°56.094 15.2968 0.063443 0.357757 -2.871232
2007-02-15 07:26:08 51°13.598 2°56.094 15.296 0.063341 0.357187 -2.871232
2007-02-15 07:26:13 51°13.598 2°56.094 15.2935 0.063341 0.357231 -2.871232
2007-02-15 07:26:18 51°13.598 2°56.094 15.2926 0.063341 0.357267 -2.871232
2007-02-15 07:26:23 51°13.598 2°56.094 15.2904 0.063341 0.357267 -2.871232
2007-02-15 07:26:28 51°13.598 2°56.094 15.2881 0.063443 0.357903 -2.871232
2007-02-15 07:26:33 51°13.598 2°56.094 15.2876 0.063443 0.35794 -2.871232
2007-02-15 07:26:38 51°13.598 2°56.094 15.2871 0.063444 0.357969 -2.871232
2007-02-15 07:26:43 51°13.598 2°56.094 15.2871 0.063444 0.357984 -2.871232
2007-02-15 07:26:47 51°13.598 2°56.094 15.2874 0.063341 0.357392 -2.871232
2007-02-15 07:26:53 51°13.598 2°56.094 15.2869 0.063341 0.357392 -2.871232
2007-02-15 07:26:58 51°13.598 2°56.094 15.2876 0.063444 0.357991 -2.871232
2007-02-15 07:27:03 51°13.598 2°56.094 15.2874 0.063341 0.357384 -2.871232
2007-02-15 07:27:07 51°13.598 2°56.094 15.286 0.063444 0.357976 -2.871232
2007-02-15 07:27:13 51°13.599 2°56.094 15.2845 0.063444 0.357969 -2.871232
2007-02-15 07:27:18 51°13.599 2°56.094 15.2834 0.063341 0.357355 -2.871232
2007-02-15 07:27:23 51°13.599 2°56.094 15.2831 0.063444 0.357954 -2.871232
2007-02-15 07:27:27 51°13.599 2°56.094 15.2829 0.063444 0.357954 -2.871232
2007-02-15 07:27:33 51°13.599 2°56.094 15.2829 0.063444 0.357962 -2.871232
2007-02-15 07:27:38 51°13.599 2°56.094 15.2829 0.063341 0.357363 -2.871232
2007-02-15 07:27:43 51°13.599 2°56.094 15.2826 0.063341 0.35737 -2.871232
2007-02-15 07:27:48 51°13.599 2°56.094 15.281 0.063341 0.357377 -2.871232
2007-02-15 07:27:53 51°13.599 2°56.094 15.2805 0.063341 0.357377 -2.871232
2007-02-15 07:27:58 51°13.599 2°56.094 15.2807 0.063341 0.357392 -2.871232
2007-02-15 07:28:03 51°13.599 2°56.094 15.2798 0.063341 0.357406 -2.871232
2007-02-15 07:28:08 51°13.599 2°56.094 15.2801 0.063444 0.35802 -2.871232
2007-02-15 07:28:13 51°13.599 2°56.094 15.2794 0.063341 0.357436 -2.871232
2007-02-15 07:28:18 51°13.599 2°56.094 15.2789 0.063341 0.35745 -2.871232
2007-02-15 07:28:23 51°13.599 2°56.094 15.2789 0.063341 0.357458 -2.871232
2007-02-15 07:28:28 51°13.599 2°56.094 15.277 0.063341 0.357458 -2.871232
2007-02-15 07:28:33 51°13.599 2°56.094 15.2758 0.063444 0.358072 -2.871232
2007-02-15 07:28:38 51°13.599 2°56.094 15.2757 0.063341 0.357487 -2.871232
2007-02-15 07:28:43 51°13.599 2°56.094 15.2737 0.063341 0.357494 -2.871232
2007-02-15 07:28:48 51°13.599 2°56.094 15.2736 0.063341 0.357509 -2.871232
2007-02-15 07:28:53 51°13.599 2°56.094 15.2717 0.063341 0.357516 -2.871232
2007-02-15 07:28:58 51°13.599 2°56.093 15.2708 0.063341 0.357516 -2.871232
2007-02-15 07:29:03 51°13.599 2°56.093 15.272 0.063444 0.35813 -2.871232
2007-02-15 07:29:08 51°13.599 2°56.093 15.2722 0.063341 0.357546 -2.871232
2007-02-15 07:29:13 51°13.599 2°56.093 15.2725 0.063341 0.357553 -2.871232
2007-02-15 07:29:18 51°13.599 2°56.093 15.2721 0.063341 0.357568 -2.871232
2007-02-15 07:29:23 51°13.599 2°56.094 15.2721 0.063341 0.357568 -2.871232
2007-02-15 07:29:27 51°13.599 2°56.094 15.2719 0.063341 0.357582 -2.871232
2007-02-15 07:29:33 51°13.599 2°56.094 15.2704 0.063341 0.35759 -2.871232
2007-02-15 07:29:38 51°13.599 2°56.094 15.2707 0.063341 0.357597 -2.871232
2007-02-15 07:29:43 51°13.599 2°56.094 15.2709 0.063341 0.357612 -2.871232
2007-02-15 07:29:47 51°13.599 2°56.094 15.2716 0.063341 0.357619 -2.871232
2007-02-15 07:29:53 51°13.599 2°56.094 15.2727 0.063341 0.357619 -2.871232
2007-02-15 07:29:58 51°13.599 2°56.094 15.2728 0.063341 0.357633 -2.871232
2007-02-15 07:30:03 51°13.599 2°56.094 15.2727 0.063341 0.357641 -2.871232
2007-02-15 07:30:07 51°13.599 2°56.094 15.2732 0.063341 0.357648 -2.871232
2007-02-15 07:30:13 51°13.599 2°56.094 15.2722 0.063444 0.358263 -2.871232
2007-02-15 07:30:18 51°13.599 2°56.094 15.2702 0.063341 0.357677 -2.871232
2007-02-15 07:30:23 51°13.599 2°56.094 15.2678 0.063341 0.357685 -2.871232
2007-02-15 07:30:27 51°13.599 2°56.094 15.2681 0.063341 0.357685 -2.871232
2007-02-15 07:30:33 51°13.599 2°56.094 15.27 0.063341 0.357699 -2.871232
2007-02-15 07:30:38 51°13.599 2°56.094 15.2694 0.063341 0.357707 -2.871232
2007-02-15 07:30:43 51°13.599 2°56.094 15.2692 0.063341 0.357721 -2.871232
2007-02-15 07:30:48 51°13.599 2°56.094 15.2698 0.063341 0.357729 -2.871232
2007-02-15 07:30:53 51°13.599 2°56.094 15.2703 0.063341 0.357743 -2.871232
2007-02-15 07:30:58 51°13.599 2°56.094 15.2705 0.063341 0.357743 -2.871232
2007-02-15 07:31:03 51°13.599 2°56.094 15.2717 0.063341 0.357751 -2.871232
2007-02-15 07:31:08 51°13.599 2°56.094 15.2722 0.063341 0.357758 -2.871232
2007-02-15 07:31:13 51°13.599 2°56.094 15.2733 0.063341 0.357773 -2.871232
2007-02-15 07:31:18 51°13.599 2°56.094 15.2743 0.063341 0.35778 -2.871232
2007-02-15 07:31:23 51°13.6 2°56.094 15.2752 0.063341 0.35778 -2.871232
2007-02-15 07:31:28 51°13.6 2°56.094 15.2742 0.063341 0.357787 -2.871232
2007-02-15 07:31:33 51°13.6 2°56.094 15.2729 0.063341 0.357802 -2.871232
2007-02-15 07:31:38 51°13.6 2°56.094 15.2724 0.063341 0.357817 -2.871232
2007-02-15 07:31:43 51°13.6 2°56.094 15.2696 0.063341 0.357824 -2.871232
2007-02-15 07:31:48 51°13.6 2°56.094 15.2691 0.063341 0.357832 -2.871232
2007-02-15 07:31:53 51°13.6 2°56.094 15.2702 0.063341 0.357832 -2.871232
2007-02-15 07:31:58 51°13.6 2°56.094 15.2707 0.063341 0.357846 -2.871232
2007-02-15 07:32:03 51°13.6 2°56.094 15.2711 0.063341 0.357854 -2.871232
2007-02-15 07:32:07 51°13.6 2°56.094 15.2709 0.063341 0.357854 -2.871232
2007-02-15 07:32:13 51°13.6 2°56.094 15.2719 0.063341 0.357854 -2.871232
2007-02-15 07:32:18 51°13.6 2°56.094 15.2717 0.063341 0.357861 -2.871232
2007-02-15 07:32:23 51°13.6 2°56.094 15.2715 0.063341 0.357868 -2.871232
2007-02-15 07:32:27 51°13.6 2°56.094 15.2711 0.063341 0.357868 -2.871232
2007-02-15 07:32:33 51°13.6 2°56.094 15.2714 0.063341 0.35789 -2.871232
2007-02-15 07:32:38 51°13.6 2°56.094 15.2701 0.063341 0.357905 -2.871232
2007-02-15 07:32:43 51°13.6 2°56.094 15.2689 0.063341 0.357927 -2.871232
2007-02-15 07:32:47 51°13.6 2°56.094 15.2665 0.063341 0.357942 -2.871232
2007-02-15 07:32:53 51°13.599 2°56.094 15.2666 0.063341 0.357942 -2.871232
2007-02-15 07:32:58 51°13.6 2°56.094 15.2659 0.063341 0.357964 -2.871232
2007-02-15 07:33:03 51°13.6 2°56.094 15.2646 0.063341 0.357978 -2.871232
2007-02-15 07:33:07 51°13.599 2°56.094 15.2645 0.063341 0.357993 -2.871232
2007-02-15 07:33:13 51°13.599 2°56.094 15.2639 0.063341 0.358008 -2.871232
2007-02-15 07:33:18 51°13.599 2°56.094 15.2649 0.063341 0.358015 -2.871232
2007-02-15 07:33:23 51°13.599 2°56.094 15.266 0.063238 0.357422 -2.871232
2007-02-15 07:33:28 51°13.599 2°56.094 15.2675 0.063238 0.357422 -2.871232
2007-02-15 07:33:33 51°13.6 2°56.094 15.2666 0.063341 0.35803 -2.871232
2007-02-15 07:33:38 51°13.6 2°56.094 15.2666 0.063341 0.358037 -2.871232
2007-02-15 07:33:43 51°13.6 2°56.094 15.2669 0.063341 0.358044 -2.871232
2007-02-15 07:33:48 51°13.6 2°56.094 15.2649 0.063341 0.358052 -2.871232
2007-02-15 07:33:53 51°13.6 2°56.094 15.2633 0.063238 0.357459 -2.871232
2007-02-15 07:33:58 51°13.6 2°56.094 15.2628 0.063238 0.357459 -2.871232
2007-02-15 07:34:03 51°13.6 2°56.094 15.2613 0.063238 0.357466 -2.871232
2007-02-15 07:34:08 51°13.6 2°56.094 15.2603 0.063238 0.357481 -2.871232
2007-02-15 07:34:13 51°13.6 2°56.094 15.2594 0.063341 0.358096 -2.871232
2007-02-15 07:34:18 51°13.6 2°56.094 15.2605 0.063341 0.358103 -2.871232
2007-02-15 07:34:23 51°13.6 2°56.094 15.2622 0.063341 0.358103 -2.871232
2007-02-15 07:34:28 51°13.599 2°56.094 15.2633 0.063341 0.358118 -2.871232
2007-02-15 07:34:33 51°13.599 2°56.094 15.2631 0.063238 0.357532 -2.871232
2007-02-15 07:34:38 51°13.599 2°56.094 15.2623 0.063238 0.357539 -2.871232
2007-02-15 07:34:43 51°13.599 2°56.094 15.2625 0.063238 0.357554 -2.871232
2007-02-15 07:34:47 51°13.599 2°56.094 15.2594 0.063238 0.357562 -2.871232
2007-02-15 07:34:53 51°13.599 2°56.094 15.2592 0.063238 0.357562 -2.871232
2007-02-15 07:34:58 51°13.599 2°56.094 15.2584 0.063341 0.358177 -2.871232
2007-02-15 07:35:03 51°13.599 2°56.094 15.2586 0.063341 0.358184 -2.871232
2007-02-15 07:35:07 51°13.599 2°56.094 15.258 0.063238 0.357598 -2.871232
2007-02-15 07:35:13 51°13.599 2°56.094 15.2564 0.063238 0.357606 -2.871232
2007-02-15 07:35:18 51°13.599 2°56.094 15.2563 0.063238 0.35762 -2.871232
2007-02-15 07:35:23 51°13.599 2°56.094 15.255 0.063238 0.357628 -2.871232
2007-02-15 07:35:27 51°13.599 2°56.094 15.2565 0.063238 0.357628 -2.871232
2007-02-15 07:35:33 51°13.599 2°56.093 15.2528 0.063238 0.357642 -2.871232
2007-02-15 07:35:38 51°13.599 2°56.093 15.2528 0.063238 0.35765 -2.871232
2007-02-15 07:35:43 51°13.599 2°56.093 15.2508 0.063238 0.357664 -2.871232
2007-02-15 07:35:48 51°13.599 2°56.093 15.2477 0.063238 0.357672 -2.871232
2007-02-15 07:35:53 51°13.599 2°56.093 15.2476 0.063238 0.357686 -2.871232
2007-02-15 07:35:58 51°13.599 2°56.093 15.2472 0.063238 0.357686 -2.871232
2007-02-15 07:36:03 51°13.599 2°56.093 15.248 0.063238 0.357694 -2.871232
2007-02-15 07:36:08 51°13.599 2°56.093 15.2504 0.063238 0.357701 -2.871232
2007-02-15 07:36:13 51°13.599 2°56.094 15.2533 0.063238 0.357716 -2.871232
2007-02-15 07:36:18 51°13.599 2°56.093 15.2571 0.063238 0.35773 -2.871232
2007-02-15 07:36:23 51°13.599 2°56.094 15.2566 0.063238 0.35773 -2.871232
2007-02-15 07:36:28 51°13.599 2°56.094 15.2557 0.063238 0.357745 -2.871232
2007-02-15 07:36:33 51°13.599 2°56.094 15.255 0.063238 0.357752 -2.871232
2007-02-15 07:36:38 51°13.599 2°56.094 15.2545 0.063238 0.357767 -2.871232
2007-02-15 07:36:43 51°13.599 2°56.093 15.2547 0.063238 0.357775 -2.871232
2007-02-15 07:36:48 51°13.599 2°56.093 15.2555 0.063238 0.357789 -2.871232
2007-02-15 07:36:53 51°13.599 2°56.093 15.2553 0.063238 0.357797 -2.871232
2007-02-15 07:36:58 51°13.599 2°56.094 15.2565 0.063238 0.357797 -2.871232
2007-02-15 07:37:03 51°13.599 2°56.094 15.2549 0.063238 0.357804 -2.871232
2007-02-15 07:37:08 51°13.599 2°56.094 15.2538 0.063238 0.357811 -2.871232
2007-02-15 07:37:13 51°13.599 2°56.094 15.253 0.063238 0.357826 -2.871232
2007-02-15 07:37:18 51°13.599 2°56.094 15.2533 0.063238 0.357841 -2.871232
2007-02-15 07:37:23 51°13.599 2°56.094 15.2557 0.063238 0.357841 -2.871232
2007-02-15 07:37:27 51°13.599 2°56.094 15.257 0.063238 0.357848 -2.871232
2007-02-15 07:37:33 51°13.599 2°56.094 15.2579 0.063238 0.357863 -2.871232
2007-02-15 07:37:38 51°13.599 2°56.094 15.2577 0.063238 0.357877 -2.871232
2007-02-15 07:37:43 51°13.599 2°56.094 15.257 0.063238 0.357885 -2.871232
2007-02-15 07:37:47 51°13.599 2°56.094 15.255 0.063238 0.357907 -2.871232
2007-02-15 07:37:53 51°13.599 2°56.094 15.2531 0.063238 0.357907 -2.871232
2007-02-15 07:37:58 51°13.598 2°56.094 15.2523 0.063238 0.357914 -2.871232
2007-02-15 07:38:03 51°13.598 2°56.094 15.2524 0.063238 0.357929 -2.871232
2007-02-15 07:38:08 51°13.598 2°56.094 15.2521 0.063238 0.357936 -2.871232
2007-02-15 07:38:13 51°13.598 2°56.094 15.2504 0.063238 0.357951 -2.871232
2007-02-15 07:38:18 51°13.599 2°56.094 15.2478 0.063135 0.357357 -2.871232
2007-02-15 07:38:23 51°13.598 2°56.094 15.2484 0.063238 0.357966 -2.871232
2007-02-15 07:38:28 51°13.599 2°56.094 15.2496 0.063238 0.357966 -2.871232
2007-02-15 07:38:33 51°13.599 2°56.094 15.2497 0.063238 0.357981 -2.871232
2007-02-15 07:38:38 51°13.598 2°56.094 15.2495 0.063238 0.357988 -2.871232
2007-02-15 07:38:43 51°13.598 2°56.094 15.2473 0.063238 0.358003 -2.871232
2007-02-15 07:38:48 51°13.598 2°56.094 15.2471 0.063238 0.35801 -2.871232
2007-02-15 07:38:53 51°13.598 2°56.094 15.2474 0.063238 0.358017 -2.871232
2007-02-15 07:38:58 51°13.599 2°56.094 15.2482 0.063238 0.358017 -2.871232
2007-02-15 07:39:03 51°13.599 2°56.094 15.2486 0.063135 0.357431 -2.871232
2007-02-15 07:39:08 51°13.599 2°56.094 15.2495 0.063238 0.358047 -2.871232
2007-02-15 07:39:13 51°13.599 2°56.094 15.25 0.063238 0.358054 -2.871232
2007-02-15 07:39:18 51°13.599 2°56.094 15.2491 0.063135 0.357467 -2.871232
2007-02-15 07:39:23 51°13.599 2°56.094 15.2476 0.063135 0.357467 -2.871232
2007-02-15 07:39:28 51°13.599 2°56.094 15.2471 0.063135 0.357475 -2.871232
2007-02-15 07:39:33 51°13.599 2°56.094 15.2461 0.063135 0.357489 -2.871232
2007-02-15 07:39:38 51°13.599 2°56.094 15.2457 0.063238 0.358098 -2.871232
2007-02-15 07:39:43 51°13.598 2°56.094 15.2444 0.063238 0.358113 -2.871232
2007-02-15 07:39:47 51°13.598 2°56.094 15.2456 0.063238 0.358128 -2.871232
2007-02-15 07:39:53 51°13.599 2°56.094 15.2478 0.063238 0.358128 -2.871232
2007-02-15 07:39:58 51°13.599 2°56.094 15.2474 0.063238 0.358135 -2.871232
2007-02-15 07:40:03 51°13.599 2°56.094 15.2476 0.063238 0.358143 -2.871232
2007-02-15 07:40:07 51°13.599 2°56.094 15.2476 0.063238 0.358157 -2.871232
2007-02-15 07:40:13 51°13.599 2°56.094 15.2453 0.063135 0.357563 -2.871232
2007-02-15 07:40:18 51°13.599 2°56.094 15.2452 0.063135 0.357578 -2.871232
2007-02-15 07:40:23 51°13.599 2°56.094 15.2449 0.063238 0.358194 -2.871232
2007-02-15 07:40:27 51°13.599 2°56.094 15.2468 0.063238 0.358194 -2.871232
2007-02-15 07:40:33 51°13.599 2°56.094 15.2465 0.063135 0.3576 -2.871232
2007-02-15 07:40:38 51°13.599 2°56.094 15.2445 0.063238 0.358216 -2.871232
2007-02-15 07:40:43 51°13.599 2°56.094 15.2449 0.063135 0.357622 -2.871232
2007-02-15 07:40:47 51°13.599 2°56.094 15.2448 0.063135 0.357637 -2.871232
2007-02-15 07:40:53 51°13.599 2°56.094 15.2433 0.063135 0.357637 -2.871232
2007-02-15 07:40:58 51°13.599 2°56.094 15.2432 0.063135 0.357644 -2.871232
2007-02-15 07:41:03 51°13.599 2°56.094 15.244 0.063135 0.357659 -2.871232
2007-02-15 07:41:08 51°13.598 2°56.094 15.2448 0.063135 0.357666 -2.871232
2007-02-15 07:41:13 51°13.598 2°56.094 15.2459 0.063135 0.357681 -2.871232
2007-02-15 07:41:18 51°13.598 2°56.094 15.2485 0.063135 0.357695 -2.871232
2007-02-15 07:41:23 51°13.598 2°56.093 15.2498 0.063135 0.357703 -2.871232
2007-02-15 07:41:28 51°13.598 2°56.093 15.2502 0.063135 0.357703 -2.871232
2007-02-15 07:41:33 51°13.598 2°56.093 15.2498 0.063135 0.357718 -2.871232
2007-02-15 07:41:38 51°13.598 2°56.093 15.2483 0.063135 0.357732 -2.871232
2007-02-15 07:41:43 51°13.598 2°56.093 15.2474 0.063135 0.35774 -2.871232
2007-02-15 07:41:48 51°13.598 2°56.093 15.2471 0.063135 0.357747 -2.871232
2007-02-15 07:41:53 51°13.598 2°56.093 15.2434 0.063135 0.357754 -2.871232
2007-02-15 07:41:58 51°13.598 2°56.093 15.2432 0.063135 0.357754 -2.871232
2007-02-15 07:42:03 51°13.598 2°56.093 15.244 0.063135 0.357769 -2.871232
2007-02-15 07:42:08 51°13.598 2°56.093 15.2449 0.063135 0.357784 -2.871232
2007-02-15 07:42:13 51°13.598 2°56.093 15.245 0.063135 0.357799 -2.871232
2007-02-15 07:42:18 51°13.598 2°56.093 15.2446 0.063135 0.357813 -2.871232
2007-02-15 07:42:23 51°13.598 2°56.093 15.2425 0.063135 0.357828 -2.871232
2007-02-15 07:42:28 51°13.598 2°56.093 15.2431 0.063135 0.357828 -2.871232
2007-02-15 07:42:33 51°13.598 2°56.093 15.2428 0.063135 0.357843 -2.871232
2007-02-15 07:42:38 51°13.598 2°56.093 15.2426 0.063135 0.357865 -2.871232
2007-02-15 07:42:43 51°13.598 2°56.093 15.2412 0.063135 0.35788 -2.871232
2007-02-15 07:42:47 51°13.598 2°56.093 15.2401 0.063135 0.357894 -2.871232
2007-02-15 07:42:53 51°13.598 2°56.093 15.2411 0.063135 0.357894 -2.871232
2007-02-15 07:42:58 51°13.598 2°56.093 15.2411 0.063135 0.357909 -2.871232
2007-02-15 07:43:03 51°13.598 2°56.093 15.2398 0.063135 0.357917 -2.871232
2007-02-15 07:43:07 51°13.598 2°56.093 15.2397 0.063135 0.357931 -2.871232
2007-02-15 07:43:13 51°13.598 2°56.093 15.2379 0.063135 0.357946 -2.871232
2007-02-15 07:43:18 51°13.598 2°56.093 15.2357 0.063135 0.357953 -2.871232
2007-02-15 07:43:23 51°13.598 2°56.093 15.2343 0.063135 0.357961 -2.871232
2007-02-15 07:43:27 51°13.598 2°56.093 15.2332 0.063135 0.357961 -2.871232
2007-02-15 07:43:33 51°13.598 2°56.093 15.2329 0.063135 0.357968 -2.871232
2007-02-15 07:43:38 51°13.598 2°56.093 15.2334 0.063135 0.357983 -2.871232
2007-02-15 07:43:43 51°13.598 2°56.093 15.2342 0.063135 0.35799 -2.871232
2007-02-15 07:43:48 51°13.598 2°56.093 15.2334 0.063135 0.358005 -2.871232
2007-02-15 07:43:53 51°13.598 2°56.093 15.2325 0.063135 0.35802 -2.871232
2007-02-15 07:43:58 51°13.598 2°56.093 15.2329 0.063135 0.35802 -2.871232
2007-02-15 07:44:03 51°13.598 2°56.093 15.2356 0.063135 0.358027 -2.871232
2007-02-15 07:44:08 51°13.598 2°56.093 15.2365 0.063135 0.358035 -2.871232
2007-02-15 07:44:13 51°13.598 2°56.093 15.2374 0.063135 0.358049 -2.871232
2007-02-15 07:44:18 51°13.597 2°56.093 15.2411 0.063135 0.358064 -2.871232
2007-02-15 07:44:23 51°13.597 2°56.093 15.2378 0.063135 0.358071 -2.871232
2007-02-15 07:44:28 51°13.597 2°56.093 15.2369 0.063135 0.358071 -2.871232
2007-02-15 07:44:33 51°13.597 2°56.093 15.2382 0.063135 0.358086 -2.871232
2007-02-15 07:44:38 51°13.597 2°56.093 15.2377 0.063135 0.358094 -2.871232
2007-02-15 07:44:43 51°13.597 2°56.093 15.2368 0.063135 0.358108 -2.871232
2007-02-15 07:44:48 51°13.597 2°56.093 15.2368 0.063135 0.358116 -2.871232
2007-02-15 07:44:53 51°13.598 2°56.094 15.2415 0.063135 0.35813 -2.871232
2007-02-15 07:44:58 51°13.598 2°56.093 15.2391 0.063135 0.35813 -2.871232
2007-02-15 07:45:03 51°13.598 2°56.093 15.2383 0.063135 0.358138 -2.871232
2007-02-15 07:45:08 51°13.598 2°56.094 15.2373 0.063135 0.358153 -2.871232
2007-02-15 07:45:13 51°13.598 2°56.094 15.2364 0.063135 0.358167 -2.871232
2007-02-15 07:45:18 51°13.598 2°56.094 15.2336 0.063032 0.357572 -2.871232
2007-02-15 07:45:23 51°13.598 2°56.094 15.234 0.063135 0.35819 -2.871232
2007-02-15 07:45:28 51°13.598 2°56.094 15.2346 0.063135 0.35819 -2.871232
2007-02-15 07:45:33 51°13.598 2°56.094 15.2353 0.063135 0.358197 -2.871232
2007-02-15 07:45:38 51°13.598 2°56.094 15.236 0.063135 0.358212 -2.871232
2007-02-15 07:45:43 51°13.598 2°56.094 15.2367 0.063135 0.358219 -2.871232
2007-02-15 07:45:47 51°13.599 2°56.094 15.237 0.063032 0.357631 -2.871232
2007-02-15 07:45:53 51°13.598 2°56.094 15.2366 0.063032 0.357631 -2.871232
2007-02-15 07:45:58 51°13.598 2°56.094 15.2359 0.063032 0.357646 -2.871232
2007-02-15 07:46:03 51°13.599 2°56.094 15.2355 0.063135 0.358256 -2.871232
2007-02-15 07:46:07 51°13.599 2°56.094 15.2351 0.063032 0.357661 -2.871232
2007-02-15 07:46:13 51°13.599 2°56.094 15.2349 0.063032 0.357675 -2.871232
2007-02-15 07:46:18 51°13.6 2°56.094 15.235 0.063135 0.358286 -2.871232
2007-02-15 07:46:23 51°13.6 2°56.094 15.2329 0.063032 0.357698 -2.871232
2007-02-15 07:46:28 51°13.6 2°56.094 15.2314 0.063032 0.357698 -2.871232
2007-02-15 07:46:33 51°13.6 2°56.094 15.2307 0.063032 0.357705 -2.871232
2007-02-15 07:46:38 51°13.599 2°56.094 15.2307 0.063032 0.357712 -2.871232
2007-02-15 07:46:43 51°13.599 2°56.094 15.229 0.063135 0.35833 -2.871232
2007-02-15 07:46:48 51°13.6 2°56.094 15.2303 0.063032 0.357742 -2.871232
2007-02-15 07:46:53 51°13.6 2°56.094 15.2314 0.063032 0.357749 -2.871232
2007-02-15 07:46:58 51°13.598 2°56.094 15.2304 0.063032 0.357749 -2.871232
2007-02-15 07:47:03 51°13.598 2°56.094 15.2285 0.063032 0.357764 -2.871232
2007-02-15 07:47:08 51°13.598 2°56.094 15.2282 0.063135 0.358382 -2.871232
2007-02-15 07:47:13 51°13.598 2°56.094 15.2255 0.063032 0.357793 -2.871232
2007-02-15 07:47:18 51°13.598 2°56.094 15.2247 0.063032 0.357801 -2.871232
2007-02-15 07:47:23 51°13.598 2°56.094 15.2247 0.063032 0.357801 -2.871232
2007-02-15 07:47:28 51°13.598 2°56.094 15.2263 0.063032 0.357816 -2.871232
2007-02-15 07:47:33 51°13.599 2°56.094 15.2263 0.063032 0.35783 -2.871232
2007-02-15 07:47:38 51°13.599 2°56.094 15.2243 0.063135 0.358456 -2.871232
2007-02-15 07:47:43 51°13.599 2°56.094 15.2239 0.063032 0.35786 -2.871232
2007-02-15 07:47:48 51°13.599 2°56.094 15.2243 0.063032 0.357875 -2.871232
2007-02-15 07:47:53 51°13.599 2°56.094 15.2213 0.063032 0.357882 -2.871232
2007-02-15 07:47:58 51°13.598 2°56.094 15.2229 0.063032 0.357882 -2.871232
2007-02-15 07:48:03 51°13.598 2°56.094 15.2196 0.063032 0.357897 -2.871232
2007-02-15 07:48:08 51°13.598 2°56.094 15.2254 0.063032 0.357912 -2.871232
2007-02-15 07:48:13 51°13.598 2°56.094 15.2267 0.063032 0.357926 -2.871232
2007-02-15 07:48:18 51°13.599 2°56.094 15.2287 0.063032 0.357941 -2.871232
2007-02-15 07:48:23 51°13.599 2°56.094 15.2251 0.063032 0.357956 -2.871232
2007-02-15 07:48:28 51°13.6 2°56.094 15.2212 0.063032 0.357956 -2.871232
2007-02-15 07:48:33 51°13.6 2°56.094 15.2228 0.063032 0.357971 -2.871232
2007-02-15 07:48:38 51°13.6 2°56.094 15.2236 0.063032 0.357985 -2.871232
2007-02-15 07:48:43 51°13.6 2°56.094 15.222 0.063032 0.358 -2.871232
2007-02-15 07:48:47 51°13.6 2°56.094 15.2203 0.063032 0.358015 -2.871232
2007-02-15 07:48:53 51°13.599 2°56.094 15.2209 0.063032 0.35803 -2.871232
2007-02-15 07:48:58 51°13.598 2°56.094 15.2211 0.063032 0.35803 -2.871232
2007-02-15 07:49:03 51°13.598 2°56.094 15.2186 0.063032 0.358045 -2.871232
2007-02-15 07:49:08 51°13.598 2°56.094 15.2185 0.063032 0.358052 -2.871232
2007-02-15 07:49:13 51°13.599 2°56.094 15.2171 0.063032 0.358067 -2.871232
2007-02-15 07:49:18 51°13.599 2°56.094 15.2174 0.063032 0.358074 -2.871232
2007-02-15 07:49:23 51°13.599 2°56.094 15.217 0.063032 0.358089 -2.871232
2007-02-15 07:49:28 51°13.599 2°56.093 15.217 0.063032 0.358089 -2.871232
2007-02-15 07:49:33 51°13.599 2°56.093 15.2207 0.063032 0.358104 -2.871232
2007-02-15 07:49:38 51°13.599 2°56.094 15.2201 0.063032 0.358111 -2.871232
2007-02-15 07:49:43 51°13.599 2°56.093 15.2213 0.063032 0.358119 -2.871232
2007-02-15 07:49:48 51°13.599 2°56.094 15.2205 0.063032 0.358133 -2.871232
2007-02-15 07:49:53 51°13.599 2°56.093 15.2208 0.063032 0.358148 -2.871232
2007-02-15 07:49:58 51°13.599 2°56.094 15.2215 0.063032 0.358148 -2.871232
2007-02-15 07:50:03 51°13.6 2°56.094 15.2179 0.063032 0.358156 -2.871232
2007-02-15 07:50:08 51°13.6 2°56.094 15.2143 0.063032 0.35817 -2.871232
2007-02-15 07:50:13 51°13.6 2°56.094 15.2155 0.063032 0.358178 -2.871232
2007-02-15 07:50:18 51°13.599 2°56.093 15.2166 0.063032 0.358193 -2.871232
2007-02-15 07:50:23 51°13.599 2°56.093 15.2193 0.063032 0.358193 -2.871232
2007-02-15 07:50:28 51°13.599 2°56.093 15.2195 0.063032 0.358207 -2.871232
2007-02-15 07:50:33 51°13.598 2°56.093 15.2205 0.063032 0.358215 -2.871232
2007-02-15 07:50:38 51°13.598 2°56.093 15.2207 0.063032 0.358222 -2.871232
2007-02-15 07:50:43 51°13.598 2°56.093 15.2209 0.063032 0.358237 -2.871232
2007-02-15 07:50:48 51°13.598 2°56.093 15.2226 0.063032 0.358252 -2.871232
2007-02-15 07:50:53 51°13.599 2°56.093 15.2207 0.063032 0.358252 -2.871232
2007-02-15 07:50:58 51°13.599 2°56.093 15.2199 0.063032 0.358259 -2.871232
2007-02-15 07:51:03 51°13.598 2°56.093 15.2199 0.063032 0.358274 -2.871232
2007-02-15 07:51:08 51°13.598 2°56.093 15.2188 0.063032 0.358281 -2.871232
2007-02-15 07:51:13 51°13.598 2°56.093 15.2203 0.063032 0.358289 -2.871232
2007-02-15 07:51:18 51°13.598 2°56.093 15.2222 0.063032 0.358304 -2.871232
2007-02-15 07:51:23 51°13.598 2°56.093 15.2207 0.063032 0.358318 -2.871232
2007-02-15 07:51:28 51°13.598 2°56.093 15.2199 0.063032 0.358318 -2.871232
2007-02-15 07:51:33 51°13.598 2°56.093 15.2204 0.063032 0.358326 -2.871232
2007-02-15 07:51:38 51°13.597 2°56.094 15.2215 0.063032 0.358333 -2.871232
2007-02-15 07:51:43 51°13.597 2°56.094 15.2223 0.063032 0.358348 -2.871232
2007-02-15 07:51:48 51°13.597 2°56.094 15.2224 0.063032 0.358363 -2.871232
2007-02-15 07:51:53 51°13.597 2°56.094 15.2216 0.063032 0.35837 -2.871232
2007-02-15 07:51:58 51°13.598 2°56.094 15.2208 0.063032 0.35837 -2.871232
2007-02-15 07:52:03 51°13.598 2°56.094 15.2191 0.063032 0.358378 -2.871232
2007-02-15 07:52:08 51°13.598 2°56.094 15.2184 0.063032 0.358392 -2.871232
2007-02-15 07:52:13 51°13.598 2°56.094 15.2175 0.063032 0.358407 -2.871232
2007-02-15 07:52:18 51°13.598 2°56.094 15.2168 0.063032 0.358415 -2.871232
2007-02-15 07:52:23 51°13.598 2°56.094 15.2182 0.063032 0.35843 -2.871232
2007-02-15 07:52:28 51°13.598 2°56.094 15.2193 0.063032 0.35843 -2.871232
2007-02-15 07:52:33 51°13.598 2°56.094 15.2189 0.062929 0.357833 -2.871232
2007-02-15 07:52:38 51°13.598 2°56.094 15.2196 0.062929 0.357848 -2.871232
2007-02-15 07:52:43 51°13.599 2°56.094 15.219 0.063032 0.358459 -2.871232
2007-02-15 07:52:48 51°13.599 2°56.094 15.2198 0.063032 0.358474 -2.871232
2007-02-15 07:52:53 51°13.599 2°56.094 15.2193 0.063032 0.358489 -2.871232
2007-02-15 07:52:58 51°13.599 2°56.094 15.2185 0.063032 0.358489 -2.871232
2007-02-15 07:53:03 51°13.599 2°56.094 15.2173 0.063032 0.358496 -2.871232
2007-02-15 07:53:08 51°13.599 2°56.094 15.2174 0.062929 0.357907 -2.871232
2007-02-15 07:53:13 51°13.599 2°56.094 15.2176 0.063032 0.358518 -2.871232
2007-02-15 07:53:18 51°13.599 2°56.094 15.2172 0.062929 0.357922 -2.871232
2007-02-15 07:53:23 51°13.599 2°56.094 15.2147 0.062929 0.357936 -2.871232
2007-02-15 07:53:28 51°13.599 2°56.094 15.2149 0.062929 0.357936 -2.871232
2007-02-15 07:53:33 51°13.599 2°56.094 15.2152 0.063032 0.358556 -2.871232
2007-02-15 07:53:38 51°13.599 2°56.094 15.214 0.062929 0.357959 -2.871232
2007-02-15 07:53:43 51°13.599 2°56.094 15.2144 0.063032 0.358578 -2.871232
2007-02-15 07:53:47 51°13.599 2°56.094 15.2141 0.063032 0.358585 -2.871232
2007-02-15 07:53:53 51°13.599 2°56.094 15.2143 0.063032 0.358585 -2.871232
2007-02-15 07:53:58 51°13.599 2°56.094 15.2137 0.062929 0.357996 -2.871232
2007-02-15 07:54:03 51°13.599 2°56.094 15.2136 0.062929 0.358011 -2.871232
2007-02-15 07:54:07 51°13.599 2°56.094 15.2139 0.063032 0.358622 -2.871232
2007-02-15 07:54:13 51°13.599 2°56.094 15.2144 0.062929 0.358033 -2.871232
2007-02-15 07:54:18 51°13.599 2°56.094 15.215 0.062929 0.35804 -2.871232
2007-02-15 07:54:23 51°13.599 2°56.094 15.2166 0.063032 0.358659 -2.871232
2007-02-15 07:54:28 51°13.598 2°56.094 15.2175 0.063032 0.358659 -2.871232
2007-02-15 07:54:33 51°13.598 2°56.094 15.2206 0.062929 0.358062 -2.871232
2007-02-15 07:54:38 51°13.599 2°56.094 15.2212 0.062929 0.358077 -2.871232
2007-02-15 07:54:43 51°13.599 2°56.094 15.2184 0.062929 0.358092 -2.871232
2007-02-15 07:54:48 51°13.599 2°56.094 15.2184 0.062929 0.358099 -2.871232
2007-02-15 07:54:53 51°13.599 2°56.094 15.2154 0.062929 0.358114 -2.871232
2007-02-15 07:54:58 51°13.599 2°56.094 15.215 0.062929 0.358114 -2.871232
2007-02-15 07:55:03 51°13.599 2°56.094 15.2139 0.062929 0.358129 -2.871232
2007-02-15 07:55:07 51°13.599 2°56.094 15.2146 0.062929 0.358137 -2.871232
2007-02-15 07:55:13 51°13.598 2°56.094 15.2149 0.062929 0.358151 -2.871232
2007-02-15 07:55:18 51°13.598 2°56.094 15.217 0.063032 0.358771 -2.871232
2007-02-15 07:55:23 51°13.598 2°56.094 15.2174 0.063032 0.358771 -2.871232
2007-02-15 07:55:28 51°13.599 2°56.094 15.2158 0.062929 0.358174 -2.871232
2007-02-15 07:55:33 51°13.599 2°56.094 15.2173 0.062929 0.358188 -2.871232
2007-02-15 07:55:38 51°13.599 2°56.094 15.2163 0.062929 0.358203 -2.871232
2007-02-15 07:55:43 51°13.599 2°56.094 15.2165 0.062929 0.358218 -2.871232
2007-02-15 07:55:47 51°13.599 2°56.094 15.2171 0.062929 0.358225 -2.871232
2007-02-15 07:55:53 51°13.599 2°56.094 15.2153 0.062929 0.358225 -2.871232
2007-02-15 07:55:58 51°13.599 2°56.094 15.2157 0.062929 0.35824 -2.871232
2007-02-15 07:56:03 51°13.599 2°56.094 15.2171 0.062929 0.358248 -2.871232
2007-02-15 07:56:07 51°13.6 2°56.094 15.2177 0.062929 0.358263 -2.871232
2007-02-15 07:56:13 51°13.6 2°56.094 15.2184 0.062929 0.358277 -2.871232
2007-02-15 07:56:17 51°13.6 2°56.094 15.2181 0.062929 0.358285 -2.871232
2007-02-15 07:56:23 51°13.6 2°56.094 15.2189 0.062929 0.3583 -2.871232
2007-02-15 07:56:27 51°13.6 2°56.094 15.2194 0.062929 0.3583 -2.871232
2007-02-15 07:56:33 51°13.599 2°56.094 15.2157 0.062929 0.358307 -2.871232
2007-02-15 07:56:37 51°13.599 2°56.094 15.2105 0.062929 0.358322 -2.871232
2007-02-15 07:56:43 51°13.599 2°56.094 15.2054 0.062929 0.358329 -2.871232
2007-02-15 07:56:47 51°13.599 2°56.094 15.2037 0.062929 0.358344 -2.871232
2007-02-15 07:56:53 51°13.599 2°56.094 15.2043 0.062929 0.358359 -2.871232
2007-02-15 07:56:58 51°13.599 2°56.094 15.2057 0.062929 0.358359 -2.871232
2007-02-15 07:57:03 51°13.599 2°56.094 15.208 0.062929 0.358366 -2.871232
2007-02-15 07:57:07 51°13.599 2°56.094 15.2064 0.062929 0.358381 -2.871232
2007-02-15 07:57:13 51°13.599 2°56.094 15.2046 0.062929 0.358396 -2.871232
2007-02-15 07:57:18 51°13.599 2°56.094 15.2027 0.062929 0.358404 -2.871232
2007-02-15 07:57:23 51°13.599 2°56.094 15.205 0.062929 0.358418 -2.871232
2007-02-15 07:57:28 51°13.599 2°56.094 15.2075 0.062929 0.358418 -2.871232
2007-02-15 07:57:33 51°13.599 2°56.094 15.2092 0.062929 0.358426 -2.871232
2007-02-15 07:57:38 51°13.599 2°56.094 15.2105 0.062929 0.358441 -2.871232
2007-02-15 07:57:43 51°13.599 2°56.094 15.2127 0.062929 0.358448 -2.871232
2007-02-15 07:57:48 51°13.599 2°56.094 15.2134 0.062929 0.358463 -2.871232
2007-02-15 07:57:53 51°13.599 2°56.094 15.2144 0.062929 0.35847 -2.871232
2007-02-15 07:57:58 51°13.599 2°56.094 15.213 0.062929 0.35847 -2.871232
2007-02-15 07:58:03 51°13.599 2°56.094 15.2108 0.062929 0.358478 -2.871232
2007-02-15 07:58:07 51°13.599 2°56.094 15.212 0.062929 0.358493 -2.871232
2007-02-15 07:58:13 51°13.6 2°56.094 15.2158 0.062929 0.358508 -2.871232
2007-02-15 07:58:18 51°13.6 2°56.094 15.2168 0.062929 0.358515 -2.871232
2007-02-15 07:58:23 51°13.6 2°56.094 15.2203 0.062929 0.35853 -2.871232
2007-02-15 07:58:27 51°13.6 2°56.094 15.2192 0.062929 0.35853 -2.871232
2007-02-15 07:58:33 51°13.6 2°56.094 15.2186 0.062929 0.358545 -2.871232
2007-02-15 07:58:38 51°13.6 2°56.094 15.2173 0.062929 0.358552 -2.871232
2007-02-15 07:58:43 51°13.6 2°56.094 15.2168 0.062929 0.358567 -2.871232
2007-02-15 07:58:47 51°13.6 2°56.094 15.2172 0.062929 0.358574 -2.871232
2007-02-15 07:58:53 51°13.6 2°56.094 15.2177 0.062929 0.358574 -2.871232
2007-02-15 07:58:57 51°13.6 2°56.094 15.2189 0.062929 0.358589 -2.871232
2007-02-15 07:59:03 51°13.599 2°56.094 15.2204 0.062929 0.358604 -2.871232
2007-02-15 07:59:08 51°13.6 2°56.094 15.2224 0.062929 0.358612 -2.871232
2007-02-15 07:59:13 51°13.6 2°56.094 15.2232 0.062929 0.358626 -2.871232
2007-02-15 07:59:18 51°13.6 2°56.094 15.225 0.062929 0.358641 -2.871232
2007-02-15 07:59:23 51°13.599 2°56.094 15.2252 0.062929 0.358649 -2.871232
2007-02-15 07:59:28 51°13.599 2°56.094 15.2221 0.062929 0.358649 -2.871232
2007-02-15 07:59:33 51°13.599 2°56.094 15.2214 0.062929 0.358656 -2.871232
2007-02-15 07:59:38 51°13.599 2°56.094 15.2223 0.062929 0.358671 -2.871232
2007-02-15 07:59:43 51°13.6 2°56.094 15.2222 0.062929 0.358679 -2.871232
2007-02-15 07:59:48 51°13.6 2°56.094 15.2232 0.062826 0.358088 -2.871232
2007-02-15 07:59:53 51°13.6 2°56.094 15.2224 0.062826 0.358103 -2.871232
2007-02-15 07:59:58 51°13.6 2°56.094 15.2215 0.062826 0.358103 -2.871232
2007-02-15 08:00:03 51°13.599 2°56.094 15.221 0.062929 0.358716 -2.871232
2007-02-15 08:00:07 51°13.599 2°56.094 15.222 0.062929 0.358731 -2.871232
2007-02-15 08:00:13 51°13.599 2°56.094 15.2234 0.062929 0.358738 -2.871232
2007-02-15 08:00:18 51°13.598 2°56.094 15.2233 0.062826 0.358147 -2.871232
2007-02-15 08:00:23 51°13.599 2°56.094 15.2233 0.062826 0.358147 -2.871232
2007-02-15 08:00:27 51°13.598 2°56.094 15.2208 0.062826 0.358155 -2.871232
2007-02-15 08:00:33 51°13.598 2°56.094 15.2184 0.062826 0.35817 -2.871232
2007-02-15 08:00:38 51°13.598 2°56.094 15.2173 0.062929 0.358783 -2.871232
2007-02-15 08:00:43 51°13.598 2°56.094 15.216 0.062826 0.358192 -2.871232
2007-02-15 08:00:47 51°13.598 2°56.094 15.2151 0.062929 0.358812 -2.871232
2007-02-15 08:00:53 51°13.599 2°56.094 15.2161 0.062929 0.358812 -2.871232
2007-02-15 08:00:58 51°13.599 2°56.094 15.2193 0.062826 0.358214 -2.871232
2007-02-15 08:01:03 51°13.599 2°56.094 15.2198 0.062929 0.358835 -2.871232
2007-02-15 08:01:07 51°13.599 2°56.094 15.2199 0.062929 0.358842 -2.871232
2007-02-15 08:01:13 51°13.598 2°56.094 15.2198 0.062929 0.358857 -2.871232
2007-02-15 08:01:18 51°13.598 2°56.094 15.2183 0.062929 0.358872 -2.871232
2007-02-15 08:01:23 51°13.598 2°56.094 15.2198 0.062826 0.358274 -2.871232
2007-02-15 08:01:27 51°13.598 2°56.094 15.2204 0.062826 0.358274 -2.871232
2007-02-15 08:01:33 51°13.598 2°56.094 15.22 0.062826 0.358289 -2.871232
2007-02-15 08:01:37 51°13.598 2°56.094 15.2211 0.062826 0.358303 -2.871232
2007-02-15 08:01:43 51°13.598 2°56.094 15.2227 0.062826 0.358318 -2.871232
2007-02-15 08:01:47 51°13.598 2°56.095 15.2235 0.062826 0.358333 -2.871232
2007-02-15 08:01:53 51°13.598 2°56.095 15.2236 0.062826 0.358341 -2.871232
2007-02-15 08:01:58 51°13.598 2°56.095 15.2234 0.062826 0.358341 -2.871232
2007-02-15 08:02:03 51°13.598 2°56.095 15.223 0.062826 0.358355 -2.871232
2007-02-15 08:02:08 51°13.598 2°56.095 15.2237 0.062826 0.35837 -2.871232
2007-02-15 08:02:13 51°13.598 2°56.095 15.2191 0.062826 0.358385 -2.871232
2007-02-15 08:02:18 51°13.598 2°56.095 15.2184 0.062826 0.3584 -2.871232
2007-02-15 08:02:23 51°13.598 2°56.095 15.2154 0.062826 0.358415 -2.871232
2007-02-15 08:02:28 51°13.597 2°56.095 15.2166 0.062826 0.358415 -2.871232
2007-02-15 08:02:33 51°13.597 2°56.095 15.2191 0.062929 0.359028 -2.871232
2007-02-15 08:02:38 51°13.597 2°56.095 15.2217 0.062826 0.358437 -2.871232
2007-02-15 08:02:43 51°13.597 2°56.095 15.221 0.062826 0.358452 -2.871232
2007-02-15 08:02:48 51°13.597 2°56.095 15.2219 0.062826 0.35846 -2.871232
2007-02-15 08:02:53 51°13.597 2°56.095 15.223 0.062826 0.358474 -2.871232
2007-02-15 08:02:58 51°13.597 2°56.095 15.2212 0.062826 0.358474 -2.871232
2007-02-15 08:03:03 51°13.597 2°56.095 15.2195 0.062826 0.358489 -2.871232
2007-02-15 08:03:07 51°13.597 2°56.095 15.2194 0.062826 0.358497 -2.871232
2007-02-15 08:03:13 51°13.597 2°56.095 15.2214 0.062826 0.358512 -2.871232
2007-02-15 08:03:18 51°13.597 2°56.095 15.2221 0.062826 0.358519 -2.871232
2007-02-15 08:03:23 51°13.597 2°56.094 15.2222 0.062826 0.358534 -2.871232
2007-02-15 08:03:27 51°13.597 2°56.095 15.2201 0.062826 0.358534 -2.871232
2007-02-15 08:03:33 51°13.597 2°56.095 15.2185 0.062826 0.358541 -2.871232
2007-02-15 08:03:38 51°13.597 2°56.095 15.2139 0.062826 0.358556 -2.871232
2007-02-15 08:03:43 51°13.597 2°56.095 15.2143 0.062826 0.358571 -2.871232
2007-02-15 08:03:47 51°13.597 2°56.095 15.2147 0.062826 0.358586 -2.871232
2007-02-15 08:03:53 51°13.597 2°56.095 15.2159 0.062826 0.358586 -2.871232
2007-02-15 08:03:58 51°13.597 2°56.095 15.2175 0.062826 0.358594 -2.871232
2007-02-15 08:04:03 51°13.597 2°56.095 15.2192 0.062826 0.358609 -2.871232
2007-02-15 08:04:07 51°13.597 2°56.095 15.2203 0.062826 0.358616 -2.871232
2007-02-15 08:04:13 51°13.597 2°56.095 15.2213 0.062826 0.358631 -2.871232
2007-02-15 08:04:17 51°13.597 2°56.095 15.2229 0.062826 0.358646 -2.871232
2007-02-15 08:04:23 51°13.597 2°56.095 15.2221 0.062826 0.358661 -2.871232
2007-02-15 08:04:27 51°13.597 2°56.095 15.2222 0.062826 0.358661 -2.871232
2007-02-15 08:04:33 51°13.597 2°56.095 15.2232 0.062826 0.358676 -2.871232
2007-02-15 08:04:38 51°13.597 2°56.095 15.2234 0.062826 0.358683 -2.871232
2007-02-15 08:04:43 51°13.597 2°56.095 15.2244 0.062826 0.358698 -2.871232
2007-02-15 08:04:48 51°13.597 2°56.095 15.2219 0.062826 0.358713 -2.871232
2007-02-15 08:04:53 51°13.597 2°56.095 15.2201 0.062826 0.35872 -2.871232
2007-02-15 08:04:58 51°13.598 2°56.095 15.2206 0.062826 0.35872 -2.871232
2007-02-15 08:05:03 51°13.598 2°56.095 15.2222 0.062826 0.358735 -2.871232
2007-02-15 08:05:08 51°13.598 2°56.095 15.2225 0.062826 0.35875 -2.871232
2007-02-15 08:05:13 51°13.598 2°56.094 15.2239 0.062826 0.358765 -2.871232
2007-02-15 08:05:18 51°13.598 2°56.094 15.2223 0.062826 0.358772 -2.871232
2007-02-15 08:05:23 51°13.598 2°56.094 15.218 0.062826 0.358772 -2.871232
2007-02-15 08:05:27 51°13.598 2°56.094 15.216 0.062826 0.358787 -2.871232
2007-02-15 08:05:33 51°13.598 2°56.094 15.2169 0.062826 0.358802 -2.871232
2007-02-15 08:05:38 51°13.598 2°56.094 15.2162 0.062826 0.358817 -2.871232
2007-02-15 08:05:43 51°13.598 2°56.094 15.2184 0.062826 0.358832 -2.871232
2007-02-15 08:05:47 51°13.598 2°56.094 15.2169 0.062826 0.358847 -2.871232
2007-02-15 08:05:53 51°13.598 2°56.094 15.2173 0.062826 0.358847 -2.871232
2007-02-15 08:05:58 51°13.598 2°56.094 15.2179 0.062723 0.358248 -2.871232
2007-02-15 08:06:03 51°13.598 2°56.094 15.2114 0.062826 0.358869 -2.871232
2007-02-15 08:06:07 51°13.598 2°56.094 15.2111 0.062826 0.358884 -2.871232
2007-02-15 08:06:13 51°13.598 2°56.094 15.2119 0.062826 0.358899 -2.871232
2007-02-15 08:06:18 51°13.598 2°56.094 15.2176 0.062826 0.358914 -2.871232
2007-02-15 08:06:23 51°13.598 2°56.094 15.2242 0.062826 0.358929 -2.871232
2007-02-15 08:06:27 51°13.598 2°56.094 15.2067 0.062826 0.358929 -2.871232
2007-02-15 08:06:33 51°13.598 2°56.094 15.2125 0.062826 0.358937 -2.871232
2007-02-15 08:06:37 51°13.598 2°56.094 15.2183 0.062826 0.358952 -2.871232
2007-02-15 08:06:43 51°13.598 2°56.093 15.2202 0.062826 0.358966 -2.871232
2007-02-15 08:06:47 51°13.598 2°56.093 15.2217 0.062826 0.358974 -2.871232
2007-02-15 08:06:53 51°13.599 2°56.093 15.2222 0.062826 0.358989 -2.871232
2007-02-15 08:06:58 51°13.599 2°56.093 15.2231 0.062826 0.358989 -2.871232
2007-02-15 08:07:03 51°13.599 2°56.093 15.2229 0.062826 0.359004 -2.871232
2007-02-15 08:07:08 51°13.599 2°56.093 15.2192 0.062826 0.359019 -2.871232
2007-02-15 08:07:13 51°13.599 2°56.093 15.2131 0.062826 0.359026 -2.871232
2007-02-15 08:07:18 51°13.599 2°56.093 15.211 0.062723 0.358434 -2.871232
2007-02-15 08:07:23 51°13.599 2°56.093 15.2109 0.062826 0.359056 -2.871232
2007-02-15 08:07:28 51°13.599 2°56.093 15.2151 0.062826 0.359056 -2.871232
2007-02-15 08:07:33 51°13.599 2°56.093 15.2157 0.062826 0.359071 -2.871232
2007-02-15 08:07:38 51°13.6 2°56.093 15.2177 0.062723 0.358471 -2.871232
2007-02-15 08:07:43 51°13.6 2°56.093 15.2192 0.062826 0.359093 -2.871232
2007-02-15 08:07:48 51°13.6 2°56.093 15.2142 0.062723 0.358501 -2.871232
2007-02-15 08:07:53 51°13.6 2°56.093 15.2096 0.062723 0.358516 -2.871232
2007-02-15 08:07:58 51°13.599 2°56.093 15.212 0.062723 0.358516 -2.871232
2007-02-15 08:08:03 51°13.599 2°56.093 15.2139 0.062723 0.358524 -2.871232
2007-02-15 08:08:07 51°13.598 2°56.093 15.2116 0.062723 0.358538 -2.871232
2007-02-15 08:08:13 51°13.598 2°56.093 15.2134 0.062826 0.359161 -2.871232
2007-02-15 08:08:18 51°13.598 2°56.093 15.218 0.062826 0.359176 -2.871232
2007-02-15 08:08:23 51°13.599 2°56.093 15.2169 0.062723 0.358576 -2.871232
2007-02-15 08:08:27 51°13.599 2°56.093 15.2171 0.062723 0.358576 -2.871232
2007-02-15 08:08:33 51°13.599 2°56.093 15.2184 0.062723 0.358591 -2.871232
2007-02-15 08:08:38 51°13.599 2°56.093 15.2182 0.062723 0.358606 -2.871232
2007-02-15 08:08:43 51°13.599 2°56.093 15.2166 0.062723 0.358621 -2.871232
2007-02-15 08:08:47 51°13.599 2°56.093 15.2181 0.062723 0.358628 -2.871232
2007-02-15 08:08:53 51°13.599 2°56.093 15.2192 0.062723 0.358628 -2.871232
2007-02-15 08:08:58 51°13.599 2°56.093 15.2188 0.062826 0.35925 -2.871232
2007-02-15 08:09:03 51°13.598 2°56.093 15.218 0.062723 0.358658 -2.871232
2007-02-15 08:09:07 51°13.598 2°56.093 15.2181 0.062723 0.358673 -2.871232
2007-02-15 08:09:13 51°13.598 2°56.093 15.2195 0.062723 0.358688 -2.871232
2007-02-15 08:09:18 51°13.598 2°56.093 15.2196 0.062723 0.358695 -2.871232
2007-02-15 08:09:23 51°13.598 2°56.093 15.2152 0.062723 0.35871 -2.871232
2007-02-15 08:09:28 51°13.599 2°56.093 15.2166 0.062723 0.35871 -2.871232
2007-02-15 08:09:33 51°13.599 2°56.093 15.2182 0.062723 0.358725 -2.871232
2007-02-15 08:09:38 51°13.599 2°56.093 15.2182 0.062723 0.35874 -2.871232
2007-02-15 08:09:43 51°13.599 2°56.093 15.2193 0.062723 0.358755 -2.871232
2007-02-15 08:09:48 51°13.599 2°56.093 15.2204 0.062723 0.358762 -2.871232
2007-02-15 08:09:53 51°13.599 2°56.093 15.2221 0.062723 0.358777 -2.871232
2007-02-15 08:09:58 51°13.599 2°56.093 15.2203 0.062723 0.358777 -2.871232
2007-02-15 08:10:03 51°13.599 2°56.093 15.216 0.062826 0.3594 -2.871232
2007-02-15 08:10:08 51°13.599 2°56.093 15.2175 0.062723 0.358807 -2.871232
2007-02-15 08:10:13 51°13.599 2°56.093 15.2159 0.062723 0.358815 -2.871232
2007-02-15 08:10:18 51°13.599 2°56.093 15.2158 0.062723 0.35883 -2.871232
2007-02-15 08:10:23 51°13.599 2°56.093 15.2167 0.062723 0.35883 -2.871232
2007-02-15 08:10:28 51°13.599 2°56.093 15.2196 0.062723 0.358845 -2.871232
2007-02-15 08:10:33 51°13.599 2°56.093 15.2173 0.062723 0.35886 -2.871232
2007-02-15 08:10:38 51°13.599 2°56.093 15.2166 0.062723 0.358875 -2.871232
2007-02-15 08:10:43 51°13.6 2°56.093 15.2171 0.062826 0.35949 -2.871232
2007-02-15 08:10:47 51°13.6 2°56.093 15.2178 0.062723 0.358897 -2.871232
2007-02-15 08:10:53 51°13.6 2°56.093 15.2191 0.062723 0.358897 -2.871232
2007-02-15 08:10:58 51°13.6 2°56.093 15.2198 0.062723 0.358904 -2.871232
2007-02-15 08:11:03 51°13.6 2°56.093 15.2196 0.062723 0.358919 -2.871232
2007-02-15 08:11:07 51°13.599 2°56.093 15.2195 0.062723 0.358934 -2.871232
2007-02-15 08:11:13 51°13.599 2°56.093 15.221 0.062723 0.358942 -2.871232
2007-02-15 08:11:18 51°13.599 2°56.093 15.2215 0.062723 0.358957 -2.871232
2007-02-15 08:11:23 51°13.599 2°56.093 15.2197 0.062723 0.358972 -2.871232
2007-02-15 08:11:27 51°13.599 2°56.093 15.2175 0.062723 0.358972 -2.871232
2007-02-15 08:11:33 51°13.599 2°56.093 15.2154 0.062723 0.358979 -2.871232
2007-02-15 08:11:38 51°13.599 2°56.093 15.217 0.062723 0.358994 -2.871232
2007-02-15 08:11:43 51°13.599 2°56.094 15.2183 0.062723 0.359002 -2.871232
2007-02-15 08:11:47 51°13.599 2°56.094 15.2177 0.062723 0.359017 -2.871232
2007-02-15 08:11:53 51°13.598 2°56.094 15.2171 0.062723 0.359024 -2.871232
2007-02-15 08:11:57 51°13.598 2°56.094 15.215 0.062723 0.359024 -2.871232
2007-02-15 08:12:03 51°13.597 2°56.094 15.2166 0.062723 0.359039 -2.871232
2007-02-15 08:12:07 51°13.598 2°56.094 15.2208 0.062723 0.359054 -2.871232
2007-02-15 08:12:13 51°13.597 2°56.094 15.2222 0.062723 0.359062 -2.871232
2007-02-15 08:12:18 51°13.597 2°56.094 15.2239 0.062723 0.359077 -2.871232
2007-02-15 08:12:23 51°13.597 2°56.094 15.2255 0.062723 0.359092 -2.871232
2007-02-15 08:12:28 51°13.597 2°56.094 15.2262 0.062723 0.359092 -2.871232
2007-02-15 08:12:33 51°13.597 2°56.094 15.2268 0.062723 0.359107 -2.871232
2007-02-15 08:12:38 51°13.597 2°56.094 15.225 0.062723 0.359122 -2.871232
2007-02-15 08:12:43 51°13.598 2°56.094 15.2241 0.062723 0.359136 -2.871232
2007-02-15 08:12:48 51°13.597 2°56.094 15.2242 0.062723 0.359151 -2.871232
2007-02-15 08:12:53 51°13.597 2°56.094 15.2232 0.062723 0.359166 -2.871232
2007-02-15 08:12:58 51°13.596 2°56.094 15.2236 0.062723 0.359166 -2.871232
2007-02-15 08:13:03 51°13.595 2°56.095 15.2189 0.062723 0.359181 -2.871232
2007-02-15 08:13:08 51°13.595 2°56.095 15.2194 0.062723 0.359204 -2.871232
2007-02-15 08:13:13 51°13.595 2°56.095 15.2211 0.062723 0.359219 -2.871232
2007-02-15 08:13:18 51°13.594 2°56.095 15.2207 0.062723 0.359234 -2.871232
2007-02-15 08:13:23 51°13.594 2°56.095 15.2209 0.062723 0.359249 -2.871232
2007-02-15 08:13:27 51°13.594 2°56.095 15.2203 0.062723 0.359249 -2.871232
2007-02-15 08:13:33 51°13.594 2°56.095 15.2207 0.062723 0.359264 -2.871232
2007-02-15 08:13:38 51°13.594 2°56.095 15.2231 0.062723 0.359279 -2.871232
2007-02-15 08:13:43 51°13.594 2°56.095 15.2247 0.062723 0.359294 -2.871232
2007-02-15 08:13:47 51°13.594 2°56.095 15.2264 0.062723 0.359316 -2.871232
2007-02-15 08:13:53 51°13.594 2°56.095 15.2259 0.062723 0.359316 -2.871232
2007-02-15 08:13:58 51°13.595 2°56.095 15.2251 0.062723 0.359331 -2.871232
2007-02-15 08:14:03 51°13.595 2°56.095 15.2257 0.062723 0.359346 -2.871232
2007-02-15 08:14:07 51°13.595 2°56.095 15.2249 0.06262 0.358753 -2.871232
2007-02-15 08:14:13 51°13.595 2°56.095 15.2251 0.06262 0.358768 -2.871232
2007-02-15 08:14:18 51°13.595 2°56.095 15.2255 0.062723 0.359391 -2.871232
2007-02-15 08:14:23 51°13.595 2°56.095 15.2244 0.062723 0.359406 -2.871232
2007-02-15 08:14:27 51°13.595 2°56.095 15.2214 0.062723 0.359406 -2.871232
2007-02-15 08:14:33 51°13.596 2°56.095 15.2218 0.06262 0.358813 -2.871232
2007-02-15 08:14:37 51°13.596 2°56.095 15.2233 0.062723 0.359436 -2.871232
2007-02-15 08:14:43 51°13.596 2°56.095 15.2248 0.062723 0.359459 -2.871232
2007-02-15 08:14:48 51°13.596 2°56.095 15.2245 0.06262 0.358857 -2.871232
2007-02-15 08:14:53 51°13.596 2°56.095 15.2234 0.06262 0.358872 -2.871232
2007-02-15 08:14:58 51°13.596 2°56.095 15.2208 0.06262 0.358872 -2.871232
2007-02-15 08:15:03 51°13.596 2°56.095 15.2214 0.06262 0.358887 -2.871232
2007-02-15 08:15:08 51°13.596 2°56.095 15.2247 0.062723 0.359511 -2.871232
2007-02-15 08:15:13 51°13.596 2°56.095 15.2257 0.062723 0.359526 -2.871232
2007-02-15 08:15:18 51°13.596 2°56.095 15.2265 0.06262 0.358932 -2.871232
2007-02-15 08:15:23 51°13.596 2°56.095 15.2248 0.062723 0.359556 -2.871232
2007-02-15 08:15:28 51°13.596 2°56.095 15.2247 0.062723 0.359556 -2.871232
2007-02-15 08:15:33 51°13.596 2°56.095 15.2251 0.06262 0.358962 -2.871232
2007-02-15 08:15:38 51°13.596 2°56.095 15.2232 0.06262 0.358977 -2.871232
2007-02-15 08:15:43 51°13.596 2°56.095 15.2236 0.06262 0.358992 -2.871232
2007-02-15 08:15:48 51°13.596 2°56.095 15.2245 0.062723 0.359617 -2.871232
2007-02-15 08:15:53 51°13.596 2°56.095 15.2252 0.062723 0.359617 -2.871232
2007-02-15 08:15:58 51°13.596 2°56.095 15.2258 0.06262 0.359022 -2.871232
2007-02-15 08:16:03 51°13.596 2°56.095 15.2244 0.06262 0.359037 -2.871232
2007-02-15 08:16:07 51°13.596 2°56.095 15.2251 0.06262 0.35906 -2.871232
2007-02-15 08:16:13 51°13.596 2°56.096 15.2259 0.06262 0.359067 -2.871232
2007-02-15 08:16:18 51°13.596 2°56.095 15.2294 0.06262 0.359082 -2.871232
2007-02-15 08:16:23 51°13.596 2°56.095 15.2275 0.06262 0.359097 -2.871232
2007-02-15 08:16:27 51°13.596 2°56.095 15.2296 0.06262 0.359097 -2.871232
2007-02-15 08:16:33 51°13.596 2°56.095 15.2311 0.06262 0.359112 -2.871232
2007-02-15 08:16:38 51°13.596 2°56.095 15.2293 0.06262 0.359127 -2.871232
2007-02-15 08:16:43 51°13.596 2°56.095 15.2284 0.06262 0.359135 -2.871232
2007-02-15 08:16:47 51°13.596 2°56.095 15.2294 0.06262 0.35915 -2.871232
2007-02-15 08:16:53 51°13.596 2°56.095 15.2307 0.06262 0.35915 -2.871232
2007-02-15 08:16:58 51°13.596 2°56.095 15.2307 0.06262 0.359165 -2.871232
2007-02-15 08:17:03 51°13.596 2°56.095 15.2288 0.06262 0.359172 -2.871232
2007-02-15 08:17:07 51°13.596 2°56.095 15.2308 0.06262 0.359187 -2.871232
2007-02-15 08:17:13 51°13.596 2°56.095 15.2331 0.06262 0.359202 -2.871232
2007-02-15 08:17:18 51°13.596 2°56.095 15.2339 0.06262 0.359217 -2.871232
2007-02-15 08:17:23 51°13.596 2°56.095 15.2338 0.06262 0.359225 -2.871232
2007-02-15 08:17:28 51°13.597 2°56.095 15.234 0.06262 0.359225 -2.871232
2007-02-15 08:17:33 51°13.597 2°56.095 15.2355 0.06262 0.35924 -2.871232
2007-02-15 08:17:38 51°13.596 2°56.095 15.2328 0.06262 0.359247 -2.871232
2007-02-15 08:17:43 51°13.596 2°56.095 15.2334 0.06262 0.359263 -2.871232
2007-02-15 08:17:48 51°13.596 2°56.095 15.2332 0.06262 0.359278 -2.871232
2007-02-15 08:17:53 51°13.596 2°56.095 15.2328 0.06262 0.359285 -2.871232
2007-02-15 08:17:58 51°13.596 2°56.095 15.2328 0.06262 0.359285 -2.871232
2007-02-15 08:18:03 51°13.597 2°56.095 15.2327 0.06262 0.3593 -2.871232
2007-02-15 08:18:08 51°13.597 2°56.095 15.2316 0.06262 0.359315 -2.871232
2007-02-15 08:18:13 51°13.597 2°56.095 15.2317 0.06262 0.359323 -2.871232
2007-02-15 08:18:18 51°13.596 2°56.095 15.2304 0.06262 0.35933 -2.871232
2007-02-15 08:18:23 51°13.596 2°56.095 15.2312 0.06262 0.35933 -2.871232
2007-02-15 08:18:27 51°13.596 2°56.095 15.2312 0.06262 0.359345 -2.871232
2007-02-15 08:18:33 51°13.597 2°56.094 15.2319 0.06262 0.35936 -2.871232
2007-02-15 08:18:38 51°13.596 2°56.094 15.232 0.06262 0.359368 -2.871232
2007-02-15 08:18:43 51°13.596 2°56.094 15.2326 0.06262 0.359375 -2.871232
2007-02-15 08:18:47 51°13.596 2°56.094 15.2329 0.06262 0.35939 -2.871232
2007-02-15 08:18:53 51°13.596 2°56.094 15.2316 0.06262 0.35939 -2.871232
2007-02-15 08:18:58 51°13.596 2°56.095 15.2311 0.06262 0.359398 -2.871232
2007-02-15 08:19:03 51°13.596 2°56.095 15.2318 0.06262 0.359405 -2.871232
2007-02-15 08:19:07 51°13.596 2°56.095 15.232 0.06262 0.35942 -2.871232
2007-02-15 08:19:13 51°13.596 2°56.095 15.2307 0.06262 0.359428 -2.871232
2007-02-15 08:19:18 51°13.596 2°56.095 15.2294 0.06262 0.359443 -2.871232
2007-02-15 08:19:23 51°13.597 2°56.095 15.2294 0.06262 0.359458 -2.871232
2007-02-15 08:19:28 51°13.597 2°56.094 15.2299 0.06262 0.359458 -2.871232
2007-02-15 08:19:33 51°13.597 2°56.094 15.2307 0.06262 0.359465 -2.871232
2007-02-15 08:19:38 51°13.597 2°56.094 15.2292 0.06262 0.35948 -2.871232
2007-02-15 08:19:43 51°13.597 2°56.094 15.2309 0.06262 0.359488 -2.871232
2007-02-15 08:19:48 51°13.597 2°56.094 15.2317 0.06262 0.359495 -2.871232
2007-02-15 08:19:53 51°13.597 2°56.094 15.2302 0.06262 0.359511 -2.871232
2007-02-15 08:19:58 51°13.597 2°56.094 15.23 0.06262 0.359511 -2.871232
2007-02-15 08:20:03 51°13.597 2°56.094 15.2304 0.06262 0.359526 -2.871232
2007-02-15 08:20:08 51°13.597 2°56.094 15.2311 0.06262 0.359533 -2.871232
2007-02-15 08:20:13 51°13.597 2°56.094 15.2325 0.06262 0.359548 -2.871232
2007-02-15 08:20:18 51°13.597 2°56.094 15.2331 0.06262 0.359563 -2.871232
2007-02-15 08:20:23 51°13.597 2°56.094 15.2302 0.06262 0.359563 -2.871232
2007-02-15 08:20:28 51°13.597 2°56.094 15.2319 0.06262 0.359578 -2.871232
2007-02-15 08:20:33 51°13.597 2°56.094 15.2329 0.06262 0.359593 -2.871232
2007-02-15 08:20:38 51°13.597 2°56.094 15.2331 0.062517 0.358998 -2.871232
2007-02-15 08:20:43 51°13.597 2°56.095 15.2335 0.06262 0.359623 -2.871232
2007-02-15 08:20:48 51°13.597 2°56.095 15.2336 0.06262 0.359638 -2.871232
2007-02-15 08:20:53 51°13.597 2°56.095 15.2319 0.062517 0.359043 -2.871232
2007-02-15 08:20:58 51°13.597 2°56.095 15.2312 0.062517 0.359043 -2.871232
2007-02-15 08:21:03 51°13.597 2°56.094 15.2312 0.062517 0.359066 -2.871232
2007-02-15 08:21:07 51°13.597 2°56.094 15.2321 0.06262 0.359691 -2.871232
2007-02-15 08:21:13 51°13.597 2°56.094 15.233 0.06262 0.359706 -2.871232
2007-02-15 08:21:18 51°13.597 2°56.094 15.2344 0.06262 0.359729 -2.871232
2007-02-15 08:21:23 51°13.597 2°56.094 15.2339 0.06262 0.359744 -2.871232
2007-02-15 08:21:27 51°13.597 2°56.094 15.2341 0.06262 0.359744 -2.871232
2007-02-15 08:21:33 51°13.597 2°56.094 15.2337 0.062517 0.359149 -2.871232
2007-02-15 08:21:38 51°13.597 2°56.094 15.233 0.062517 0.359164 -2.871232
2007-02-15 08:21:43 51°13.597 2°56.094 15.2318 0.062517 0.359179 -2.871232
2007-02-15 08:21:47 51°13.597 2°56.094 15.233 0.06262 0.359804 -2.871232
2007-02-15 08:21:53 51°13.597 2°56.094 15.234 0.062517 0.359216 -2.871232
2007-02-15 08:21:58 51°13.597 2°56.094 15.2347 0.062517 0.359216 -2.871232
2007-02-15 08:22:03 51°13.597 2°56.094 15.2351 0.062517 0.359224 -2.871232
2007-02-15 08:22:07 51°13.597 2°56.094 15.2351 0.062517 0.359246 -2.871232
2007-02-15 08:22:13 51°13.597 2°56.094 15.2337 0.062517 0.359261 -2.871232
2007-02-15 08:22:17 51°13.597 2°56.094 15.2332 0.062517 0.359269 -2.871232
2007-02-15 08:22:23 51°13.597 2°56.094 15.2336 0.062517 0.359284 -2.871232
2007-02-15 08:22:28 51°13.597 2°56.094 15.2338 0.062517 0.359284 -2.871232
2007-02-15 08:22:33 51°13.597 2°56.094 15.2298 0.062517 0.359299 -2.871232
2007-02-15 08:22:38 51°13.597 2°56.094 15.2306 0.062517 0.359314 -2.871232
2007-02-15 08:22:43 51°13.597 2°56.094 15.2323 0.062517 0.359322 -2.871232
2007-02-15 08:22:48 51°13.597 2°56.094 15.2318 0.062517 0.359337 -2.871232
2007-02-15 08:22:53 51°13.597 2°56.094 15.2317 0.062517 0.359352 -2.871232
2007-02-15 08:22:58 51°13.597 2°56.094 15.2313 0.062517 0.359352 -2.871232
2007-02-15 08:23:03 51°13.597 2°56.095 15.2319 0.062517 0.359367 -2.871232
2007-02-15 08:23:08 51°13.597 2°56.095 15.2303 0.062517 0.359374 -2.871232
2007-02-15 08:23:13 51°13.597 2°56.095 15.231 0.062517 0.359397 -2.871232
2007-02-15 08:23:18 51°13.597 2°56.095 15.2331 0.062517 0.359404 -2.871232
2007-02-15 08:23:23 51°13.597 2°56.095 15.2346 0.062517 0.359404 -2.871232
2007-02-15 08:23:28 51°13.597 2°56.095 15.2354 0.062517 0.359419 -2.871232
2007-02-15 08:23:33 51°13.597 2°56.095 15.2363 0.062517 0.359435 -2.871232
2007-02-15 08:23:38 51°13.597 2°56.094 15.2361 0.062517 0.359442 -2.871232
2007-02-15 08:23:43 51°13.597 2°56.095 15.236 0.062517 0.359457 -2.871232
2007-02-15 08:23:47 51°13.597 2°56.095 15.2353 0.062517 0.359472 -2.871232
2007-02-15 08:23:53 51°13.597 2°56.094 15.2351 0.062517 0.35948 -2.871232
2007-02-15 08:23:58 51°13.597 2°56.094 15.2347 0.062517 0.35948 -2.871232
2007-02-15 08:24:03 51°13.597 2°56.095 15.235 0.062517 0.359495 -2.871232
2007-02-15 08:24:07 51°13.597 2°56.095 15.2353 0.062517 0.359502 -2.871232
2007-02-15 08:24:13 51°13.597 2°56.095 15.233 0.062517 0.359525 -2.871232
2007-02-15 08:24:18 51°13.596 2°56.095 15.2333 0.062517 0.359533 -2.871232
2007-02-15 08:24:23 51°13.596 2°56.095 15.2321 0.062517 0.359548 -2.871232
2007-02-15 08:24:27 51°13.596 2°56.095 15.2312 0.062517 0.359548 -2.871232
2007-02-15 08:24:33 51°13.596 2°56.095 15.2306 0.062517 0.359555 -2.871232
2007-02-15 08:24:38 51°13.596 2°56.095 15.2295 0.062517 0.35957 -2.871232
2007-02-15 08:24:43 51°13.596 2°56.095 15.2302 0.062517 0.359585 -2.871232
2007-02-15 08:24:47 51°13.596 2°56.095 15.2305 0.062517 0.3596 -2.871232
2007-02-15 08:24:53 51°13.596 2°56.095 15.2324 0.062517 0.359608 -2.871232
2007-02-15 08:24:58 51°13.596 2°56.094 15.2307 0.062517 0.359608 -2.871232
2007-02-15 08:25:03 51°13.596 2°56.094 15.2293 0.062517 0.359623 -2.871232
2007-02-15 08:25:08 51°13.596 2°56.094 15.2274 0.062517 0.359638 -2.871232
2007-02-15 08:25:13 51°13.596 2°56.094 15.2279 0.062517 0.359646 -2.871232
2007-02-15 08:25:18 51°13.596 2°56.094 15.2282 0.062517 0.359661 -2.871232
2007-02-15 08:25:23 51°13.596 2°56.094 15.2232 0.062517 0.359676 -2.871232
2007-02-15 08:25:28 51°13.596 2°56.094 15.2259 0.062517 0.359676 -2.871232
2007-02-15 08:25:33 51°13.597 2°56.094 15.2261 0.062517 0.359691 -2.871232
2007-02-15 08:25:38 51°13.597 2°56.094 15.2289 0.062517 0.359706 -2.871232
2007-02-15 08:25:43 51°13.597 2°56.094 15.2311 0.062517 0.359714 -2.871232
2007-02-15 08:25:48 51°13.597 2°56.094 15.2285 0.062517 0.359729 -2.871232
2007-02-15 08:25:53 51°13.597 2°56.094 15.2264 0.062517 0.359744 -2.871232
2007-02-15 08:25:58 51°13.597 2°56.094 15.2266 0.062517 0.359744 -2.871232
2007-02-15 08:26:03 51°13.597 2°56.094 15.2279 0.062517 0.359751 -2.871232
2007-02-15 08:26:08 51°13.597 2°56.094 15.2297 0.062415 0.359155 -2.871232
2007-02-15 08:26:13 51°13.597 2°56.094 15.2319 0.062415 0.35917 -2.871232
2007-02-15 08:26:18 51°13.597 2°56.094 15.2331 0.062415 0.359178 -2.871232
2007-02-15 08:26:23 51°13.597 2°56.094 15.2347 0.062415 0.359193 -2.871232
2007-02-15 08:26:27 51°13.597 2°56.094 15.2356 0.062415 0.359193 -2.871232
2007-02-15 08:26:33 51°13.597 2°56.094 15.2362 0.062517 0.359812 -2.871232
2007-02-15 08:26:38 51°13.598 2°56.094 15.2371 0.062517 0.359827 -2.871232
2007-02-15 08:26:43 51°13.598 2°56.094 15.2368 0.062415 0.359223 -2.871232
2007-02-15 08:26:47 51°13.598 2°56.094 15.2364 0.062415 0.359238 -2.871232
2007-02-15 08:26:53 51°13.598 2°56.094 15.2366 0.062415 0.359238 -2.871232
2007-02-15 08:26:58 51°13.598 2°56.094 15.2354 0.062415 0.359245 -2.871232
2007-02-15 08:27:03 51°13.598 2°56.094 15.2361 0.062415 0.35926 -2.871232
2007-02-15 08:27:07 51°13.598 2°56.094 15.2369 0.062415 0.359276 -2.871232
2007-02-15 08:27:13 51°13.598 2°56.094 15.2383 0.062415 0.359283 -2.871232
2007-02-15 08:27:18 51°13.598 2°56.094 15.2359 0.062415 0.359298 -2.871232
2007-02-15 08:27:23 51°13.598 2°56.094 15.2359 0.062415 0.359313 -2.871232
2007-02-15 08:27:27 51°13.598 2°56.094 15.2328 0.062415 0.359313 -2.871232
2007-02-15 08:27:33 51°13.598 2°56.094 15.2324 0.062415 0.359321 -2.871232
2007-02-15 08:27:38 51°13.598 2°56.094 15.2327 0.062415 0.359328 -2.871232
2007-02-15 08:27:43 51°13.598 2°56.094 15.2282 0.062415 0.359343 -2.871232
2007-02-15 08:27:48 51°13.598 2°56.094 15.2299 0.062415 0.359351 -2.871232
2007-02-15 08:27:53 51°13.598 2°56.094 15.2314 0.062415 0.359366 -2.871232
2007-02-15 08:27:58 51°13.598 2°56.094 15.2331 0.062415 0.359366 -2.871232
2007-02-15 08:28:03 51°13.598 2°56.095 15.2341 0.062415 0.359381 -2.871232
2007-02-15 08:28:08 51°13.598 2°56.095 15.2347 0.062415 0.359389 -2.871232
2007-02-15 08:28:13 51°13.598 2°56.095 15.2346 0.062415 0.359404 -2.871232
2007-02-15 08:28:18 51°13.598 2°56.095 15.2333 0.062415 0.359419 -2.871232
2007-02-15 08:28:23 51°13.598 2°56.095 15.2345 0.062415 0.359419 -2.871232
2007-02-15 08:28:28 51°13.598 2°56.095 15.2348 0.062415 0.359434 -2.871232
2007-02-15 08:28:33 51°13.598 2°56.095 15.2357 0.062415 0.359442 -2.871232
2007-02-15 08:28:38 51°13.598 2°56.095 15.2374 0.062415 0.359457 -2.871232
2007-02-15 08:28:43 51°13.598 2°56.094 15.2376 0.062415 0.359472 -2.871232
2007-02-15 08:28:48 51°13.597 2°56.094 15.2368 0.062415 0.359487 -2.871232
2007-02-15 08:28:53 51°13.597 2°56.094 15.2363 0.062415 0.359502 -2.871232
2007-02-15 08:28:58 51°13.597 2°56.094 15.238 0.062415 0.359502 -2.871232
2007-02-15 08:29:03 51°13.598 2°56.094 15.2404 0.062415 0.359509 -2.871232
2007-02-15 08:29:08 51°13.598 2°56.094 15.2389 0.062415 0.359525 -2.871232
2007-02-15 08:29:13 51°13.598 2°56.094 15.2406 0.062312 0.358928 -2.871232
2007-02-15 08:29:18 51°13.598 2°56.094 15.2422 0.062415 0.359555 -2.871232
2007-02-15 08:29:23 51°13.598 2°56.094 15.2441 0.062312 0.35895 -2.871232
2007-02-15 08:29:27 51°13.598 2°56.094 15.2444 0.062312 0.35895 -2.871232
2007-02-15 08:29:33 51°13.598 2°56.094 15.2425 0.062415 0.359577 -2.871232
2007-02-15 08:29:38 51°13.598 2°56.094 15.2422 0.062415 0.359585 -2.871232
2007-02-15 08:29:43 51°13.598 2°56.095 15.2432 0.062415 0.3596 -2.871232
2007-02-15 08:29:47 51°13.598 2°56.095 15.2448 0.062415 0.359608 -2.871232
2007-02-15 08:29:53 51°13.598 2°56.095 15.2452 0.062415 0.359623 -2.871232
2007-02-15 08:29:58 51°13.598 2°56.095 15.2448 0.062415 0.359623 -2.871232
2007-02-15 08:30:03 51°13.597 2°56.095 15.2446 0.062415 0.35963 -2.871232
2007-02-15 08:30:08 51°13.597 2°56.095 15.2449 0.062415 0.359645 -2.871232
2007-02-15 08:30:13 51°13.598 2°56.095 15.2436 0.062312 0.359048 -2.871232
2007-02-15 08:30:18 51°13.598 2°56.095 15.2448 0.062415 0.359668 -2.871232
2007-02-15 08:30:23 51°13.598 2°56.095 15.2448 0.062415 0.359683 -2.871232
2007-02-15 08:30:28 51°13.598 2°56.095 15.2458 0.062415 0.359683 -2.871232
2007-02-15 08:30:33 51°13.598 2°56.094 15.2454 0.062415 0.359691 -2.871232
2007-02-15 08:30:38 51°13.598 2°56.094 15.2451 0.062415 0.359706 -2.871232
2007-02-15 08:30:43 51°13.598 2°56.094 15.2434 0.062312 0.359109 -2.871232
2007-02-15 08:30:48 51°13.598 2°56.094 15.242 0.062312 0.359116 -2.871232
2007-02-15 08:30:53 51°13.598 2°56.094 15.2414 0.062312 0.359131 -2.871232
2007-02-15 08:30:58 51°13.598 2°56.094 15.2419 0.062312 0.359131 -2.871232
2007-02-15 08:31:03 51°13.598 2°56.094 15.2416 0.062415 0.359751 -2.871232
2007-02-15 08:31:08 51°13.598 2°56.094 15.2402 0.062312 0.359154 -2.871232
2007-02-15 08:31:13 51°13.598 2°56.094 15.2364 0.062312 0.359162 -2.871232
2007-02-15 08:31:18 51°13.598 2°56.094 15.2357 0.062312 0.359177 -2.871232
2007-02-15 08:31:23 51°13.598 2°56.094 15.2341 0.062312 0.359184 -2.871232
2007-02-15 08:31:27 51°13.598 2°56.094 15.2331 0.062312 0.359184 -2.871232
2007-02-15 08:31:33 51°13.598 2°56.094 15.2251 0.062415 0.359812 -2.871232
2007-02-15 08:31:38 51°13.598 2°56.094 15.2234 0.062312 0.359207 -2.871232
2007-02-15 08:31:43 51°13.598 2°56.094 15.225 0.062312 0.359222 -2.871232
2007-02-15 08:31:47 51°13.598 2°56.094 15.2265 0.062312 0.359237 -2.871232
2007-02-15 08:31:53 51°13.598 2°56.094 15.2294 0.062312 0.359245 -2.871232
2007-02-15 08:31:58 51°13.598 2°56.094 15.2318 0.062312 0.359245 -2.871232
2007-02-15 08:32:03 51°13.598 2°56.094 15.233 0.062312 0.35926 -2.871232
2007-02-15 08:32:07 51°13.598 2°56.094 15.235 0.062312 0.359267 -2.871232
2007-02-15 08:32:13 51°13.597 2°56.094 15.2356 0.062312 0.359282 -2.871232
2007-02-15 08:32:18 51°13.597 2°56.094 15.2373 0.062312 0.359298 -2.871232
2007-02-15 08:32:23 51°13.596 2°56.094 15.2379 0.062312 0.359305 -2.871232
2007-02-15 08:32:27 51°13.596 2°56.094 15.2388 0.062312 0.359305 -2.871232
2007-02-15 08:32:33 51°13.596 2°56.094 15.2385 0.062312 0.35932 -2.871232
2007-02-15 08:32:38 51°13.596 2°56.094 15.2396 0.062312 0.359328 -2.871232
2007-02-15 08:32:43 51°13.596 2°56.094 15.2411 0.062312 0.359343 -2.871232
2007-02-15 08:32:48 51°13.596 2°56.094 15.2421 0.062312 0.35935 -2.871232
2007-02-15 08:32:53 51°13.596 2°56.094 15.2419 0.062312 0.359366 -2.871232
2007-02-15 08:32:58 51°13.596 2°56.094 15.2388 0.062312 0.359366 -2.871232
2007-02-15 08:33:03 51°13.597 2°56.094 15.2399 0.062312 0.359381 -2.871232
2007-02-15 08:33:08 51°13.597 2°56.094 15.2402 0.062312 0.359388 -2.871232
2007-02-15 08:33:13 51°13.597 2°56.094 15.2429 0.062312 0.359403 -2.871232
2007-02-15 08:33:18 51°13.597 2°56.094 15.2444 0.062312 0.359411 -2.871232
2007-02-15 08:33:23 51°13.597 2°56.094 15.2467 0.062312 0.359411 -2.871232
2007-02-15 08:33:28 51°13.597 2°56.094 15.2485 0.062312 0.359426 -2.871232
2007-02-15 08:33:33 51°13.597 2°56.094 15.2473 0.062312 0.359434 -2.871232
2007-02-15 08:33:38 51°13.597 2°56.094 15.2448 0.062312 0.359449 -2.871232
2007-02-15 08:33:43 51°13.597 2°56.094 15.2455 0.062312 0.359456 -2.871232
2007-02-15 08:33:48 51°13.597 2°56.094 15.2474 0.062312 0.359471 -2.871232
2007-02-15 08:33:53 51°13.597 2°56.094 15.2501 0.062312 0.359487 -2.871232
2007-02-15 08:33:58 51°13.597 2°56.094 15.2509 0.062312 0.359487 -2.871232
2007-02-15 08:34:03 51°13.597 2°56.094 15.251 0.062312 0.359494 -2.871232
2007-02-15 08:34:08 51°13.597 2°56.094 15.2516 0.062312 0.359509 -2.871232
2007-02-15 08:34:13 51°13.597 2°56.094 15.2497 0.062312 0.359517 -2.871232
2007-02-15 08:34:18 51°13.597 2°56.094 15.2464 0.062312 0.359532 -2.871232
2007-02-15 08:34:23 51°13.597 2°56.094 15.2426 0.062312 0.35954 -2.871232
2007-02-15 08:34:28 51°13.597 2°56.094 15.2421 0.062312 0.35954 -2.871232
2007-02-15 08:34:33 51°13.597 2°56.094 15.2421 0.062312 0.359555 -2.871232
2007-02-15 08:34:38 51°13.597 2°56.094 15.2434 0.062312 0.359562 -2.871232
2007-02-15 08:34:43 51°13.597 2°56.093 15.2448 0.062209 0.358964 -2.871232
2007-02-15 08:34:47 51°13.597 2°56.093 15.2441 0.062312 0.359585 -2.871232
2007-02-15 08:34:53 51°13.597 2°56.093 15.2448 0.062312 0.3596 -2.871232
2007-02-15 08:34:58 51°13.597 2°56.094 15.2441 0.062312 0.3596 -2.871232
2007-02-15 08:35:03 51°13.597 2°56.093 15.244 0.062209 0.358994 -2.871232
2007-02-15 08:35:07 51°13.597 2°56.094 15.2449 0.062209 0.35901 -2.871232
2007-02-15 08:35:13 51°13.597 2°56.094 15.2464 0.062312 0.359638 -2.871232
2007-02-15 08:35:18 51°13.597 2°56.094 15.2463 0.062312 0.359646 -2.871232
2007-02-15 08:35:23 51°13.597 2°56.094 15.2478 0.062209 0.359047 -2.871232
2007-02-15 08:35:27 51°13.597 2°56.094 15.2466 0.062209 0.359047 -2.871232
2007-02-15 08:35:33 51°13.597 2°56.094 15.2457 0.062312 0.359668 -2.871232
2007-02-15 08:35:38 51°13.597 2°56.094 15.2481 0.062209 0.35907 -2.871232
2007-02-15 08:35:43 51°13.597 2°56.094 15.2487 0.062312 0.359691 -2.871232
2007-02-15 08:35:48 51°13.597 2°56.094 15.2483 0.062209 0.359093 -2.871232
2007-02-15 08:35:53 51°13.597 2°56.094 15.2492 0.062209 0.359108 -2.871232
2007-02-15 08:35:58 51°13.597 2°56.094 15.2494 0.062209 0.359108 -2.871232
2007-02-15 08:36:03 51°13.597 2°56.094 15.2498 0.062209 0.359115 -2.871232
2007-02-15 08:36:08 51°13.597 2°56.094 15.2514 0.062312 0.359744 -2.871232
2007-02-15 08:36:13 51°13.597 2°56.094 15.2515 0.062209 0.359138 -2.871232
2007-02-15 08:36:18 51°13.597 2°56.094 15.2517 0.062209 0.359153 -2.871232
2007-02-15 08:36:23 51°13.597 2°56.094 15.2514 0.062209 0.359153 -2.871232
2007-02-15 08:36:28 51°13.597 2°56.094 15.2499 0.062312 0.359782 -2.871232
2007-02-15 08:36:33 51°13.597 2°56.094 15.2497 0.062209 0.359176 -2.871232
2007-02-15 08:36:38 51°13.597 2°56.093 15.249 0.062209 0.359191 -2.871232
2007-02-15 08:36:43 51°13.597 2°56.093 15.2502 0.062209 0.359199 -2.871232
2007-02-15 08:36:48 51°13.597 2°56.093 15.2511 0.062209 0.359214 -2.871232
2007-02-15 08:36:53 51°13.597 2°56.093 15.2516 0.062209 0.359229 -2.871232
2007-02-15 08:36:58 51°13.597 2°56.093 15.2521 0.062209 0.359229 -2.871232
2007-02-15 08:37:03 51°13.598 2°56.093 15.2533 0.062209 0.359237 -2.871232
2007-02-15 08:37:07 51°13.598 2°56.093 15.2538 0.062209 0.359252 -2.871232
2007-02-15 08:37:13 51°13.598 2°56.093 15.2521 0.062209 0.359267 -2.871232
2007-02-15 08:37:18 51°13.598 2°56.093 15.253 0.062209 0.359274 -2.871232
2007-02-15 08:37:23 51°13.598 2°56.093 15.2498 0.062209 0.359282 -2.871232
2007-02-15 08:37:27 51°13.598 2°56.093 15.2523 0.062209 0.359282 -2.871232
2007-02-15 08:37:33 51°13.598 2°56.093 15.2523 0.062209 0.359297 -2.871232
2007-02-15 08:37:38 51°13.598 2°56.093 15.2543 0.062209 0.359312 -2.871232
2007-02-15 08:37:43 51°13.598 2°56.093 15.2545 0.062209 0.35932 -2.871232
2007-02-15 08:37:47 51°13.598 2°56.093 15.2552 0.062209 0.359335 -2.871232
2007-02-15 08:37:53 51°13.598 2°56.093 15.2553 0.062209 0.359335 -2.871232
2007-02-15 08:37:58 51°13.598 2°56.093 15.2523 0.062209 0.359343 -2.871232
2007-02-15 08:38:03 51°13.598 2°56.093 15.253 0.062209 0.359358 -2.871232
2007-02-15 08:38:07 51°13.598 2°56.093 15.2531 0.062209 0.359365 -2.871232
2007-02-15 08:38:13 51°13.598 2°56.093 15.2533 0.062209 0.35938 -2.871232
2007-02-15 08:38:18 51°13.598 2°56.093 15.2534 0.062209 0.359396 -2.871232
2007-02-15 08:38:23 51°13.598 2°56.093 15.2524 0.062209 0.359411 -2.871232
2007-02-15 08:38:28 51°13.598 2°56.093 15.248 0.062209 0.359411 -2.871232
2007-02-15 08:38:33 51°13.598 2°56.093 15.2496 0.062209 0.359426 -2.871232
2007-02-15 08:38:38 51°13.598 2°56.093 15.2493 0.062209 0.359433 -2.871232
2007-02-15 08:38:43 51°13.598 2°56.093 15.2513 0.062209 0.359449 -2.871232
2007-02-15 08:38:48 51°13.599 2°56.093 15.252 0.062209 0.359456 -2.871232
2007-02-15 08:38:53 51°13.599 2°56.093 15.2544 0.062106 0.358857 -2.871232
2007-02-15 08:38:58 51°13.599 2°56.093 15.2546 0.062106 0.358857 -2.871232
2007-02-15 08:39:03 51°13.599 2°56.093 15.2563 0.062209 0.359479 -2.871232
2007-02-15 08:39:08 51°13.599 2°56.093 15.2573 0.062106 0.35888 -2.871232
2007-02-15 08:39:13 51°13.599 2°56.093 15.2568 0.062209 0.359502 -2.871232
2007-02-15 08:39:18 51°13.599 2°56.093 15.2563 0.062209 0.359509 -2.871232
2007-02-15 08:39:23 51°13.599 2°56.093 15.2567 0.062209 0.359509 -2.871232
2007-02-15 08:39:28 51°13.599 2°56.093 15.2595 0.062106 0.35891 -2.871232
2007-02-15 08:39:33 51°13.599 2°56.093 15.2577 0.062209 0.359532 -2.871232
2007-02-15 08:39:38 51°13.598 2°56.093 15.2592 0.062209 0.35954 -2.871232
2007-02-15 08:39:43 51°13.598 2°56.093 15.2612 0.062209 0.359555 -2.871232
2007-02-15 08:39:48 51°13.598 2°56.093 15.2599 0.062209 0.35957 -2.871232
2007-02-15 08:39:53 51°13.598 2°56.093 15.2587 0.062106 0.358963 -2.871232
2007-02-15 08:39:58 51°13.598 2°56.093 15.2588 0.062106 0.358963 -2.871232
2007-02-15 08:40:03 51°13.598 2°56.093 15.2584 0.062106 0.358978 -2.871232
2007-02-15 08:40:07 51°13.598 2°56.093 15.2559 0.062209 0.359608 -2.871232
2007-02-15 08:40:13 51°13.598 2°56.093 15.2528 0.062106 0.359009 -2.871232
2007-02-15 08:40:18 51°13.598 2°56.093 15.2546 0.062106 0.359016 -2.871232
2007-02-15 08:40:23 51°13.598 2°56.093 15.2571 0.062106 0.359032 -2.871232
2007-02-15 08:40:27 51°13.598 2°56.093 15.2592 0.062106 0.359032 -2.871232
2007-02-15 08:40:33 51°13.598 2°56.093 15.2614 0.062106 0.359047 -2.871232
2007-02-15 08:40:38 51°13.598 2°56.093 15.2612 0.062106 0.359054 -2.871232
2007-02-15 08:40:43 51°13.598 2°56.093 15.2567 0.062106 0.359069 -2.871232
2007-02-15 08:40:47 51°13.599 2°56.093 15.2556 0.062106 0.359085 -2.871232
2007-02-15 08:40:53 51°13.599 2°56.093 15.2579 0.062106 0.359092 -2.871232
2007-02-15 08:40:58 51°13.599 2°56.093 15.2592 0.062106 0.359092 -2.871232
2007-02-15 08:41:03 51°13.599 2°56.093 15.26 0.062106 0.359107 -2.871232
2007-02-15 08:41:08 51°13.599 2°56.094 15.2558 0.062106 0.359115 -2.871232
2007-02-15 08:41:13 51°13.599 2°56.094 15.2502 0.062106 0.35913 -2.871232
2007-02-15 08:41:18 51°13.599 2°56.094 15.2483 0.062106 0.359145 -2.871232
2007-02-15 08:41:23 51°13.599 2°56.094 15.2432 0.062106 0.359153 -2.871232
2007-02-15 08:41:28 51°13.598 2°56.093 15.2428 0.062106 0.359153 -2.871232
2007-02-15 08:41:33 51°13.598 2°56.093 15.243 0.062106 0.359168 -2.871232
2007-02-15 08:41:38 51°13.598 2°56.093 15.2471 0.062106 0.359183 -2.871232
2007-02-15 08:41:43 51°13.598 2°56.093 15.2466 0.062106 0.359191 -2.871232
2007-02-15 08:41:48 51°13.598 2°56.093 15.2475 0.062106 0.359206 -2.871232
2007-02-15 08:41:53 51°13.598 2°56.093 15.2394 0.062106 0.359221 -2.871232
2007-02-15 08:41:58 51°13.598 2°56.093 15.2368 0.062106 0.359221 -2.871232
2007-02-15 08:42:03 51°13.598 2°56.093 15.2428 0.062106 0.359229 -2.871232
2007-02-15 08:42:08 51°13.598 2°56.093 15.2478 0.062106 0.359244 -2.871232
2007-02-15 08:42:13 51°13.598 2°56.093 15.2516 0.062106 0.359259 -2.871232
2007-02-15 08:42:18 51°13.598 2°56.093 15.2517 0.062106 0.359267 -2.871232
2007-02-15 08:42:23 51°13.598 2°56.093 15.2477 0.062106 0.359282 -2.871232
2007-02-15 08:42:28 51°13.598 2°56.093 15.246 0.062106 0.359282 -2.871232
2007-02-15 08:42:33 51°13.599 2°56.093 15.2487 0.062106 0.359297 -2.871232
2007-02-15 08:42:38 51°13.599 2°56.093 15.2491 0.062106 0.359304 -2.871232
2007-02-15 08:42:43 51°13.599 2°56.093 15.2463 0.062106 0.359312 -2.871232
2007-02-15 08:42:48 51°13.599 2°56.093 15.2491 0.062106 0.359327 -2.871232
2007-02-15 08:42:53 51°13.599 2°56.093 15.2532 0.062106 0.359342 -2.871232
2007-02-15 08:42:58 51°13.599 2°56.093 15.2542 0.062106 0.359342 -2.871232
2007-02-15 08:43:03 51°13.599 2°56.093 15.256 0.062106 0.359358 -2.871232
2007-02-15 08:43:07 51°13.6 2°56.093 15.256 0.062106 0.359373 -2.871232
2007-02-15 08:43:13 51°13.6 2°56.093 15.2567 0.062106 0.35938 -2.871232
2007-02-15 08:43:18 51°13.6 2°56.093 15.2562 0.062106 0.359396 -2.871232
2007-02-15 08:43:23 51°13.599 2°56.093 15.2549 0.062003 0.358788 -2.871232
2007-02-15 08:43:28 51°13.599 2°56.093 15.2584 0.062003 0.358788 -2.871232
2007-02-15 08:43:33 51°13.599 2°56.093 15.2603 0.062003 0.358803 -2.871232
2007-02-15 08:43:38 51°13.599 2°56.093 15.2613 0.062106 0.359434 -2.871232
2007-02-15 08:43:43 51°13.599 2°56.093 15.2619 0.062106 0.359449 -2.871232
2007-02-15 08:43:48 51°13.599 2°56.093 15.2588 0.062106 0.359456 -2.871232
2007-02-15 08:43:53 51°13.599 2°56.093 15.2585 0.062106 0.359472 -2.871232
2007-02-15 08:43:58 51°13.599 2°56.093 15.2578 0.062106 0.359472 -2.871232
2007-02-15 08:44:03 51°13.598 2°56.092 15.2581 0.062106 0.359487 -2.871232
2007-02-15 08:44:08 51°13.598 2°56.092 15.2579 0.062106 0.359494 -2.871232
2007-02-15 08:44:13 51°13.598 2°56.093 15.26 0.062003 0.358894 -2.871232
2007-02-15 08:44:18 51°13.598 2°56.093 15.2617 0.062106 0.359517 -2.871232
2007-02-15 08:44:23 51°13.598 2°56.093 15.2581 0.062003 0.358917 -2.871232
2007-02-15 08:44:28 51°13.598 2°56.093 15.2577 0.062003 0.358917 -2.871232
2007-02-15 08:44:33 51°13.598 2°56.093 15.2591 0.062106 0.359548 -2.871232
2007-02-15 08:44:38 51°13.598 2°56.093 15.2605 0.062003 0.358948 -2.871232
2007-02-15 08:44:43 51°13.598 2°56.093 15.2591 0.062106 0.359578 -2.871232
2007-02-15 08:44:48 51°13.598 2°56.093 15.2589 0.062003 0.35897 -2.871232
2007-02-15 08:44:53 51°13.598 2°56.093 15.2563 0.062106 0.359608 -2.871232
2007-02-15 08:44:58 51°13.598 2°56.093 15.2562 0.062106 0.359608 -2.871232
2007-02-15 08:45:03 51°13.598 2°56.093 15.257 0.062003 0.359001 -2.871232
2007-02-15 08:45:08 51°13.599 2°56.094 15.2566 0.062003 0.359016 -2.871232
2007-02-15 08:45:13 51°13.599 2°56.094 15.2569 0.062003 0.359023 -2.871232
2007-02-15 08:45:18 51°13.599 2°56.095 15.2573 0.062003 0.359039 -2.871232
2007-02-15 08:45:23 51°13.599 2°56.094 15.2559 0.062003 0.359054 -2.871232
2007-02-15 08:45:28 51°13.598 2°56.094 15.256 0.062003 0.359054 -2.871232
2007-02-15 08:45:33 51°13.598 2°56.094 15.2563 0.062003 0.359069 -2.871232
2007-02-15 08:45:38 51°13.598 2°56.094 15.2569 0.062003 0.359084 -2.871232
2007-02-15 08:45:43 51°13.598 2°56.094 15.256 0.062003 0.359092 -2.871232
2007-02-15 08:45:47 51°13.598 2°56.094 15.2568 0.062003 0.359107 -2.871232
2007-02-15 08:45:53 51°13.599 2°56.094 15.2568 0.062003 0.359107 -2.871232
2007-02-15 08:45:58 51°13.599 2°56.094 15.2566 0.062106 0.359738 -2.871232
2007-02-15 08:46:03 51°13.599 2°56.094 15.2548 0.062003 0.359137 -2.871232
2007-02-15 08:46:07 51°13.599 2°56.094 15.2535 0.062003 0.359145 -2.871232
2007-02-15 08:46:13 51°13.599 2°56.094 15.2528 0.062003 0.35916 -2.871232
2007-02-15 08:46:18 51°13.598 2°56.094 15.2537 0.062003 0.359175 -2.871232
2007-02-15 08:46:23 51°13.598 2°56.094 15.254 0.062003 0.359191 -2.871232
2007-02-15 08:46:28 51°13.598 2°56.094 15.2527 0.062003 0.359191 -2.871232
2007-02-15 08:46:33 51°13.598 2°56.094 15.2544 0.062003 0.359198 -2.871232
2007-02-15 08:46:38 51°13.598 2°56.094 15.2547 0.062003 0.359213 -2.871232
2007-02-15 08:46:43 51°13.598 2°56.094 15.2561 0.062003 0.359229 -2.871232
2007-02-15 08:46:48 51°13.598 2°56.093 15.257 0.062003 0.359244 -2.871232
2007-02-15 08:46:53 51°13.598 2°56.094 15.2588 0.062003 0.359259 -2.871232
2007-02-15 08:46:58 51°13.598 2°56.094 15.2585 0.062003 0.359259 -2.871232
2007-02-15 08:47:03 51°13.598 2°56.094 15.2592 0.062003 0.359267 -2.871232
2007-02-15 08:47:08 51°13.598 2°56.094 15.2603 0.062003 0.359282 -2.871232
2007-02-15 08:47:13 51°13.598 2°56.094 15.2621 0.062003 0.359297 -2.871232
2007-02-15 08:47:18 51°13.598 2°56.094 15.2575 0.062003 0.359305 -2.871232
2007-02-15 08:47:23 51°13.599 2°56.095 15.2505 0.062003 0.359305 -2.871232
2007-02-15 08:47:28 51°13.599 2°56.095 15.2513 0.062003 0.359327 -2.871232
2007-02-15 08:47:33 51°13.598 2°56.094 15.2553 0.062003 0.359335 -2.871232
2007-02-15 08:47:38 51°13.598 2°56.094 15.2551 0.062003 0.35935 -2.871232
2007-02-15 08:47:43 51°13.598 2°56.094 15.2555 0.062003 0.359365 -2.871232
2007-02-15 08:47:48 51°13.598 2°56.095 15.2555 0.062003 0.359373 -2.871232
2007-02-15 08:47:53 51°13.598 2°56.095 15.2556 0.062003 0.359396 -2.871232
2007-02-15 08:47:58 51°13.598 2°56.095 15.2556 0.062003 0.359396 -2.871232
2007-02-15 08:48:03 51°13.598 2°56.095 15.2561 0.062003 0.359403 -2.871232